<?xml version="1.0" encoding="UTF-8" standalone="no" ?>
<gpx xmlns="http://www.topografix.com/GPX/1/1" xmlns:xsi="http://www.w3.org/2001/XMLSchema-instance" xsi:schemaLocation="http://www.topografix.com/GPX/1/1 http://www.topografix.com/GPX/1/1/gpx.xsd" version="1.1" creator="VisuGPX - https://www.visugpx.com">
  <metadata>
    <name>CORSE - PEDESTRE - Lac de Bastani &amp; Monte Renoso</name>
    <desc><![CDATA[Sortie sous nuges]]></desc>
  </metadata>
  <wpt lat="42.05975" lon="9.13383">
    <ele>2350.291015625</ele>
    <name><![CDATA[007]]></name>
    <desc><![CDATA[24-JUN-15 11:19:53]]></desc>
    <cmt><![CDATA[24-JUN-15 11:19:53]]></cmt>
  </wpt>
  <trk>
    <name><![CDATA[ACTIVE LOG 007]]></name>
    <trkseg>
      <trkpt lat="42.07742" lon="9.14769">
        <ele>1672.3505859375</ele>
        <time>2015-06-24T07:17:22Z</time>
      </trkpt>
      <trkpt lat="42.07742" lon="9.14769">
        <ele>1674.75390625</ele>
        <time>2015-06-24T07:17:23Z</time>
      </trkpt>
      <trkpt lat="42.07742" lon="9.14769">
        <ele>1673.7924804688</ele>
        <time>2015-06-24T07:17:24Z</time>
      </trkpt>
      <trkpt lat="42.07739" lon="9.14756">
        <ele>1673.7924804688</ele>
        <time>2015-06-24T07:17:41Z</time>
      </trkpt>
      <trkpt lat="42.07737" lon="9.14747">
        <ele>1672.8312988281</ele>
        <time>2015-06-24T07:17:55Z</time>
      </trkpt>
      <trkpt lat="42.07734" lon="9.14733">
        <ele>1673.3120117188</ele>
        <time>2015-06-24T07:18:11Z</time>
      </trkpt>
      <trkpt lat="42.07731" lon="9.14725">
        <ele>1673.3120117188</ele>
        <time>2015-06-24T07:18:18Z</time>
      </trkpt>
      <trkpt lat="42.07724" lon="9.14712">
        <ele>1672.3505859375</ele>
        <time>2015-06-24T07:18:31Z</time>
      </trkpt>
      <trkpt lat="42.07719" lon="9.14696">
        <ele>1672.3505859375</ele>
        <time>2015-06-24T07:18:45Z</time>
      </trkpt>
      <trkpt lat="42.07718" lon="9.14682">
        <ele>1673.3120117188</ele>
        <time>2015-06-24T07:19:02Z</time>
      </trkpt>
      <trkpt lat="42.07717" lon="9.14677">
        <ele>1672.8312988281</ele>
        <time>2015-06-24T07:19:31Z</time>
      </trkpt>
      <trkpt lat="42.07717" lon="9.1468">
        <ele>1674.75390625</ele>
        <time>2015-06-24T07:19:47Z</time>
      </trkpt>
      <trkpt lat="42.07707" lon="9.14677">
        <ele>1673.3120117188</ele>
        <time>2015-06-24T07:20:12Z</time>
      </trkpt>
      <trkpt lat="42.07697" lon="9.14674">
        <ele>1673.3120117188</ele>
        <time>2015-06-24T07:20:28Z</time>
      </trkpt>
      <trkpt lat="42.07691" lon="9.1467">
        <ele>1672.3505859375</ele>
        <time>2015-06-24T07:20:42Z</time>
      </trkpt>
      <trkpt lat="42.0769" lon="9.14669">
        <ele>1672.3505859375</ele>
        <time>2015-06-24T07:20:43Z</time>
      </trkpt>
      <trkpt lat="42.07677" lon="9.14661">
        <ele>1673.7924804688</ele>
        <time>2015-06-24T07:20:59Z</time>
      </trkpt>
      <trkpt lat="42.07671" lon="9.14659">
        <ele>1674.2731933594</ele>
        <time>2015-06-24T07:21:21Z</time>
      </trkpt>
      <trkpt lat="42.07668" lon="9.1466">
        <ele>1675.7150878906</ele>
        <time>2015-06-24T07:21:32Z</time>
      </trkpt>
      <trkpt lat="42.07657" lon="9.14657">
        <ele>1677.6379394531</ele>
        <time>2015-06-24T07:21:45Z</time>
      </trkpt>
      <trkpt lat="42.07648" lon="9.1465">
        <ele>1679.0798339844</ele>
        <time>2015-06-24T07:22:02Z</time>
      </trkpt>
      <trkpt lat="42.07648" lon="9.1465">
        <ele>1679.0798339844</ele>
        <time>2015-06-24T07:22:03Z</time>
      </trkpt>
      <trkpt lat="42.07629" lon="9.14637">
        <ele>1680.0412597656</ele>
        <time>2015-06-24T07:22:24Z</time>
      </trkpt>
      <trkpt lat="42.07609" lon="9.14627">
        <ele>1681.0026855469</ele>
        <time>2015-06-24T07:22:45Z</time>
      </trkpt>
      <trkpt lat="42.07596" lon="9.14625">
        <ele>1682.4445800781</ele>
        <time>2015-06-24T07:23:01Z</time>
      </trkpt>
      <trkpt lat="42.07592" lon="9.14625">
        <ele>1682.9250488281</ele>
        <time>2015-06-24T07:23:08Z</time>
      </trkpt>
      <trkpt lat="42.07607" lon="9.14623">
        <ele>1682.4445800781</ele>
        <time>2015-06-24T07:23:28Z</time>
      </trkpt>
      <trkpt lat="42.07608" lon="9.14617">
        <ele>1681.9638671875</ele>
        <time>2015-06-24T07:23:33Z</time>
      </trkpt>
      <trkpt lat="42.07602" lon="9.14611">
        <ele>1684.3671875</ele>
        <time>2015-06-24T07:23:42Z</time>
      </trkpt>
      <trkpt lat="42.07583" lon="9.14615">
        <ele>1686.7702636719</ele>
        <time>2015-06-24T07:24:00Z</time>
      </trkpt>
      <trkpt lat="42.07571" lon="9.14619">
        <ele>1689.654296875</ele>
        <time>2015-06-24T07:24:16Z</time>
      </trkpt>
      <trkpt lat="42.07563" lon="9.14623">
        <ele>1690.6154785156</ele>
        <time>2015-06-24T07:24:26Z</time>
      </trkpt>
      <trkpt lat="42.0755" lon="9.14632">
        <ele>1693.0190429688</ele>
        <time>2015-06-24T07:24:42Z</time>
      </trkpt>
      <trkpt lat="42.07542" lon="9.1464">
        <ele>1696.3837890625</ele>
        <time>2015-06-24T07:24:52Z</time>
      </trkpt>
      <trkpt lat="42.07534" lon="9.14648">
        <ele>1697.8256835938</ele>
        <time>2015-06-24T07:25:04Z</time>
      </trkpt>
      <trkpt lat="42.07528" lon="9.14657">
        <ele>1697.8256835938</ele>
        <time>2015-06-24T07:25:16Z</time>
      </trkpt>
      <trkpt lat="42.07516" lon="9.14669">
        <ele>1699.267578125</ele>
        <time>2015-06-24T07:25:33Z</time>
      </trkpt>
      <trkpt lat="42.07506" lon="9.14686">
        <ele>1701.1901855469</ele>
        <time>2015-06-24T07:25:51Z</time>
      </trkpt>
      <trkpt lat="42.07496" lon="9.14702">
        <ele>1703.1127929688</ele>
        <time>2015-06-24T07:26:08Z</time>
      </trkpt>
      <trkpt lat="42.0749" lon="9.14713">
        <ele>1704.5546875</ele>
        <time>2015-06-24T07:26:17Z</time>
      </trkpt>
      <trkpt lat="42.0748" lon="9.14732">
        <ele>1706.9580078125</ele>
        <time>2015-06-24T07:26:36Z</time>
      </trkpt>
      <trkpt lat="42.07473" lon="9.1474">
        <ele>1707.9194335938</ele>
        <time>2015-06-24T07:26:52Z</time>
      </trkpt>
      <trkpt lat="42.07468" lon="9.14746">
        <ele>1711.2841796875</ele>
        <time>2015-06-24T07:27:01Z</time>
      </trkpt>
      <trkpt lat="42.07463" lon="9.14765">
        <ele>1712.7260742188</ele>
        <time>2015-06-24T07:27:19Z</time>
      </trkpt>
      <trkpt lat="42.07456" lon="9.14778">
        <ele>1715.1293945312</ele>
        <time>2015-06-24T07:27:32Z</time>
      </trkpt>
      <trkpt lat="42.07453" lon="9.14802">
        <ele>1715.1293945312</ele>
        <time>2015-06-24T07:27:51Z</time>
      </trkpt>
      <trkpt lat="42.0745" lon="9.14824">
        <ele>1717.5324707031</ele>
        <time>2015-06-24T07:28:08Z</time>
      </trkpt>
      <trkpt lat="42.07447" lon="9.14844">
        <ele>1720.4165039062</ele>
        <time>2015-06-24T07:28:25Z</time>
      </trkpt>
      <trkpt lat="42.07443" lon="9.14863">
        <ele>1721.3776855469</ele>
        <time>2015-06-24T07:28:42Z</time>
      </trkpt>
      <trkpt lat="42.07439" lon="9.14878">
        <ele>1721.3776855469</ele>
        <time>2015-06-24T07:28:58Z</time>
      </trkpt>
      <trkpt lat="42.07435" lon="9.14888">
        <ele>1721.3776855469</ele>
        <time>2015-06-24T07:29:06Z</time>
      </trkpt>
      <trkpt lat="42.07429" lon="9.14889">
        <ele>1722.3391113281</ele>
        <time>2015-06-24T07:29:21Z</time>
      </trkpt>
      <trkpt lat="42.07422" lon="9.14884">
        <ele>1723.7810058594</ele>
        <time>2015-06-24T07:29:30Z</time>
      </trkpt>
      <trkpt lat="42.07421" lon="9.14879">
        <ele>1725.7038574219</ele>
        <time>2015-06-24T07:29:35Z</time>
      </trkpt>
      <trkpt lat="42.07415" lon="9.14868">
        <ele>1725.7038574219</ele>
        <time>2015-06-24T07:29:50Z</time>
      </trkpt>
      <trkpt lat="42.07413" lon="9.14867">
        <ele>1726.6652832031</ele>
        <time>2015-06-24T07:30:12Z</time>
      </trkpt>
      <trkpt lat="42.07414" lon="9.14862">
        <ele>1726.6652832031</ele>
        <time>2015-06-24T07:30:39Z</time>
      </trkpt>
      <trkpt lat="42.07414" lon="9.14849">
        <ele>1729.068359375</ele>
        <time>2015-06-24T07:30:55Z</time>
      </trkpt>
      <trkpt lat="42.07409" lon="9.14835">
        <ele>1730.9912109375</ele>
        <time>2015-06-24T07:31:09Z</time>
      </trkpt>
      <trkpt lat="42.07408" lon="9.14823">
        <ele>1731.4716796875</ele>
        <time>2015-06-24T07:31:24Z</time>
      </trkpt>
      <trkpt lat="42.07409" lon="9.14824">
        <ele>1730.9912109375</ele>
        <time>2015-06-24T07:31:38Z</time>
      </trkpt>
      <trkpt lat="42.0741" lon="9.14817">
        <ele>1731.9523925781</ele>
        <time>2015-06-24T07:32:01Z</time>
      </trkpt>
      <trkpt lat="42.0741" lon="9.14812">
        <ele>1732.4331054688</ele>
        <time>2015-06-24T07:32:09Z</time>
      </trkpt>
      <trkpt lat="42.07405" lon="9.14805">
        <ele>1732.4331054688</ele>
        <time>2015-06-24T07:32:20Z</time>
      </trkpt>
      <trkpt lat="42.07403" lon="9.14801">
        <ele>1733.875</ele>
        <time>2015-06-24T07:32:23Z</time>
      </trkpt>
      <trkpt lat="42.07403" lon="9.14789">
        <ele>1736.7587890625</ele>
        <time>2015-06-24T07:32:38Z</time>
      </trkpt>
      <trkpt lat="42.07403" lon="9.14774">
        <ele>1738.681640625</ele>
        <time>2015-06-24T07:32:54Z</time>
      </trkpt>
      <trkpt lat="42.07403" lon="9.14761">
        <ele>1739.6428222656</ele>
        <time>2015-06-24T07:33:08Z</time>
      </trkpt>
      <trkpt lat="42.07396" lon="9.14756">
        <ele>1743.0075683594</ele>
        <time>2015-06-24T07:33:21Z</time>
      </trkpt>
      <trkpt lat="42.07394" lon="9.14756">
        <ele>1742.5270996094</ele>
        <time>2015-06-24T07:33:23Z</time>
      </trkpt>
      <trkpt lat="42.07392" lon="9.14753">
        <ele>1743.48828125</ele>
        <time>2015-06-24T07:33:26Z</time>
      </trkpt>
      <trkpt lat="42.07386" lon="9.14745">
        <ele>1745.4108886719</ele>
        <time>2015-06-24T07:33:41Z</time>
      </trkpt>
      <trkpt lat="42.07383" lon="9.14743">
        <ele>1746.8527832031</ele>
        <time>2015-06-24T07:33:46Z</time>
      </trkpt>
      <trkpt lat="42.07377" lon="9.14734">
        <ele>1747.8142089844</ele>
        <time>2015-06-24T07:34:00Z</time>
      </trkpt>
      <trkpt lat="42.0737" lon="9.14727">
        <ele>1751.1787109375</ele>
        <time>2015-06-24T07:34:12Z</time>
      </trkpt>
      <trkpt lat="42.07361" lon="9.14714">
        <ele>1753.58203125</ele>
        <time>2015-06-24T07:34:31Z</time>
      </trkpt>
      <trkpt lat="42.07354" lon="9.14707">
        <ele>1756.4660644531</ele>
        <time>2015-06-24T07:34:44Z</time>
      </trkpt>
      <trkpt lat="42.07346" lon="9.147">
        <ele>1756.9467773438</ele>
        <time>2015-06-24T07:35:00Z</time>
      </trkpt>
      <trkpt lat="42.07346" lon="9.14694">
        <ele>1757.4274902344</ele>
        <time>2015-06-24T07:35:17Z</time>
      </trkpt>
      <trkpt lat="42.07344" lon="9.14688">
        <ele>1759.8305664062</ele>
        <time>2015-06-24T07:35:48Z</time>
      </trkpt>
      <trkpt lat="42.07338" lon="9.14677">
        <ele>1762.2338867188</ele>
        <time>2015-06-24T07:36:05Z</time>
      </trkpt>
      <trkpt lat="42.07331" lon="9.14669">
        <ele>1763.1953125</ele>
        <time>2015-06-24T07:36:19Z</time>
      </trkpt>
      <trkpt lat="42.07326" lon="9.14662">
        <ele>1766.5598144531</ele>
        <time>2015-06-24T07:36:31Z</time>
      </trkpt>
      <trkpt lat="42.07325" lon="9.14662">
        <ele>1766.0791015625</ele>
        <time>2015-06-24T07:36:32Z</time>
      </trkpt>
      <trkpt lat="42.07317" lon="9.1465">
        <ele>1768.482421875</ele>
        <time>2015-06-24T07:36:49Z</time>
      </trkpt>
      <trkpt lat="42.07316" lon="9.14648">
        <ele>1769.9243164062</ele>
        <time>2015-06-24T07:36:52Z</time>
      </trkpt>
      <trkpt lat="42.07311" lon="9.14639">
        <ele>1772.3278808594</ele>
        <time>2015-06-24T07:37:07Z</time>
      </trkpt>
      <trkpt lat="42.07304" lon="9.1463">
        <ele>1774.2504882812</ele>
        <time>2015-06-24T07:37:23Z</time>
      </trkpt>
      <trkpt lat="42.07301" lon="9.14622">
        <ele>1777.6149902344</ele>
        <time>2015-06-24T07:37:33Z</time>
      </trkpt>
      <trkpt lat="42.07299" lon="9.14616">
        <ele>1780.0183105469</ele>
        <time>2015-06-24T07:37:48Z</time>
      </trkpt>
      <trkpt lat="42.07297" lon="9.14611">
        <ele>1782.4216308594</ele>
        <time>2015-06-24T07:38:00Z</time>
      </trkpt>
      <trkpt lat="42.07296" lon="9.14603">
        <ele>1784.3442382812</ele>
        <time>2015-06-24T07:38:13Z</time>
      </trkpt>
      <trkpt lat="42.07295" lon="9.14602">
        <ele>1785.3054199219</ele>
        <time>2015-06-24T07:38:17Z</time>
      </trkpt>
      <trkpt lat="42.07292" lon="9.14594">
        <ele>1786.7473144531</ele>
        <time>2015-06-24T07:38:34Z</time>
      </trkpt>
      <trkpt lat="42.07295" lon="9.14588">
        <ele>1790.5927734375</ele>
        <time>2015-06-24T07:38:50Z</time>
      </trkpt>
      <trkpt lat="42.07297" lon="9.14584">
        <ele>1792.0349121094</ele>
        <time>2015-06-24T07:39:04Z</time>
      </trkpt>
      <trkpt lat="42.07295" lon="9.14577">
        <ele>1793.4768066406</ele>
        <time>2015-06-24T07:39:16Z</time>
      </trkpt>
      <trkpt lat="42.07293" lon="9.14566">
        <ele>1795.8801269531</ele>
        <time>2015-06-24T07:39:31Z</time>
      </trkpt>
      <trkpt lat="42.0729" lon="9.1456">
        <ele>1795.8801269531</ele>
        <time>2015-06-24T07:39:58Z</time>
      </trkpt>
      <trkpt lat="42.0729" lon="9.14553">
        <ele>1798.283203125</ele>
        <time>2015-06-24T07:40:11Z</time>
      </trkpt>
      <trkpt lat="42.07292" lon="9.14553">
        <ele>1799.7253417969</ele>
        <time>2015-06-24T07:40:15Z</time>
      </trkpt>
      <trkpt lat="42.07296" lon="9.14554">
        <ele>1801.1672363281</ele>
        <time>2015-06-24T07:40:28Z</time>
      </trkpt>
      <trkpt lat="42.073" lon="9.14554">
        <ele>1802.6091308594</ele>
        <time>2015-06-24T07:40:41Z</time>
      </trkpt>
      <trkpt lat="42.073" lon="9.14547">
        <ele>1805.9738769531</ele>
        <time>2015-06-24T07:40:55Z</time>
      </trkpt>
      <trkpt lat="42.07305" lon="9.1455">
        <ele>1807.8967285156</ele>
        <time>2015-06-24T07:41:10Z</time>
      </trkpt>
      <trkpt lat="42.07306" lon="9.14543">
        <ele>1811.2612304688</ele>
        <time>2015-06-24T07:41:23Z</time>
      </trkpt>
      <trkpt lat="42.07313" lon="9.14543">
        <ele>1812.703125</ele>
        <time>2015-06-24T07:41:38Z</time>
      </trkpt>
      <trkpt lat="42.07317" lon="9.14539">
        <ele>1813.6643066406</ele>
        <time>2015-06-24T07:41:50Z</time>
      </trkpt>
      <trkpt lat="42.07319" lon="9.14534">
        <ele>1815.5871582031</ele>
        <time>2015-06-24T07:42:05Z</time>
      </trkpt>
      <trkpt lat="42.0732" lon="9.14531">
        <ele>1817.990234375</ele>
        <time>2015-06-24T07:42:13Z</time>
      </trkpt>
      <trkpt lat="42.07323" lon="9.14528">
        <ele>1820.8745117188</ele>
        <time>2015-06-24T07:42:22Z</time>
      </trkpt>
      <trkpt lat="42.07324" lon="9.14524">
        <ele>1822.31640625</ele>
        <time>2015-06-24T07:42:35Z</time>
      </trkpt>
      <trkpt lat="42.07321" lon="9.14517">
        <ele>1824.2390136719</ele>
        <time>2015-06-24T07:42:48Z</time>
      </trkpt>
      <trkpt lat="42.07318" lon="9.14513">
        <ele>1825.6809082031</ele>
        <time>2015-06-24T07:43:01Z</time>
      </trkpt>
      <trkpt lat="42.07316" lon="9.14507">
        <ele>1829.5261230469</ele>
        <time>2015-06-24T07:43:13Z</time>
      </trkpt>
      <trkpt lat="42.07316" lon="9.14506">
        <ele>1829.5261230469</ele>
        <time>2015-06-24T07:43:14Z</time>
      </trkpt>
      <trkpt lat="42.07318" lon="9.145">
        <ele>1831.9294433594</ele>
        <time>2015-06-24T07:43:29Z</time>
      </trkpt>
      <trkpt lat="42.07321" lon="9.14497">
        <ele>1834.3327636719</ele>
        <time>2015-06-24T07:43:41Z</time>
      </trkpt>
      <trkpt lat="42.07322" lon="9.14493">
        <ele>1834.8134765625</ele>
        <time>2015-06-24T07:43:57Z</time>
      </trkpt>
      <trkpt lat="42.07322" lon="9.14488">
        <ele>1835.2939453125</ele>
        <time>2015-06-24T07:44:20Z</time>
      </trkpt>
      <trkpt lat="42.0732" lon="9.1448">
        <ele>1838.1782226562</ele>
        <time>2015-06-24T07:44:33Z</time>
      </trkpt>
      <trkpt lat="42.0732" lon="9.14471">
        <ele>1839.1394042969</ele>
        <time>2015-06-24T07:44:47Z</time>
      </trkpt>
      <trkpt lat="42.07322" lon="9.14458">
        <ele>1841.5427246094</ele>
        <time>2015-06-24T07:45:04Z</time>
      </trkpt>
      <trkpt lat="42.0732" lon="9.14451">
        <ele>1844.4265136719</ele>
        <time>2015-06-24T07:45:19Z</time>
      </trkpt>
      <trkpt lat="42.07315" lon="9.14448">
        <ele>1845.8686523438</ele>
        <time>2015-06-24T07:45:33Z</time>
      </trkpt>
      <trkpt lat="42.0731" lon="9.14443">
        <ele>1847.7912597656</ele>
        <time>2015-06-24T07:45:49Z</time>
      </trkpt>
      <trkpt lat="42.07305" lon="9.14441">
        <ele>1850.1945800781</ele>
        <time>2015-06-24T07:46:03Z</time>
      </trkpt>
      <trkpt lat="42.073" lon="9.1444">
        <ele>1851.1557617188</ele>
        <time>2015-06-24T07:46:13Z</time>
      </trkpt>
      <trkpt lat="42.07295" lon="9.14439">
        <ele>1850.6750488281</ele>
        <time>2015-06-24T07:46:22Z</time>
      </trkpt>
      <trkpt lat="42.07292" lon="9.14431">
        <ele>1853.0786132812</ele>
        <time>2015-06-24T07:46:36Z</time>
      </trkpt>
      <trkpt lat="42.07284" lon="9.14424">
        <ele>1854.0400390625</ele>
        <time>2015-06-24T07:46:52Z</time>
      </trkpt>
      <trkpt lat="42.07275" lon="9.14414">
        <ele>1856.4431152344</ele>
        <time>2015-06-24T07:47:10Z</time>
      </trkpt>
      <trkpt lat="42.0727" lon="9.14406">
        <ele>1857.8852539062</ele>
        <time>2015-06-24T07:47:27Z</time>
      </trkpt>
      <trkpt lat="42.07266" lon="9.14401">
        <ele>1860.2883300781</ele>
        <time>2015-06-24T07:47:42Z</time>
      </trkpt>
      <trkpt lat="42.07261" lon="9.14391">
        <ele>1862.6916503906</ele>
        <time>2015-06-24T07:48:02Z</time>
      </trkpt>
      <trkpt lat="42.07258" lon="9.14383">
        <ele>1864.1335449219</ele>
        <time>2015-06-24T07:48:18Z</time>
      </trkpt>
      <trkpt lat="42.07249" lon="9.14376">
        <ele>1867.017578125</ele>
        <time>2015-06-24T07:48:34Z</time>
      </trkpt>
      <trkpt lat="42.07243" lon="9.14371">
        <ele>1868.9404296875</ele>
        <time>2015-06-24T07:48:47Z</time>
      </trkpt>
      <trkpt lat="42.07237" lon="9.14366">
        <ele>1869.4211425781</ele>
        <time>2015-06-24T07:49:02Z</time>
      </trkpt>
      <trkpt lat="42.07232" lon="9.14357">
        <ele>1871.82421875</ele>
        <time>2015-06-24T07:49:16Z</time>
      </trkpt>
      <trkpt lat="42.07229" lon="9.1435">
        <ele>1875.6694335938</ele>
        <time>2015-06-24T07:49:28Z</time>
      </trkpt>
      <trkpt lat="42.07223" lon="9.14339">
        <ele>1876.1501464844</ele>
        <time>2015-06-24T07:49:44Z</time>
      </trkpt>
      <trkpt lat="42.07219" lon="9.1433">
        <ele>1876.630859375</ele>
        <time>2015-06-24T07:49:58Z</time>
      </trkpt>
      <trkpt lat="42.07219" lon="9.14322">
        <ele>1879.5146484375</ele>
        <time>2015-06-24T07:50:10Z</time>
      </trkpt>
      <trkpt lat="42.07212" lon="9.1431">
        <ele>1879.9953613281</ele>
        <time>2015-06-24T07:50:26Z</time>
      </trkpt>
      <trkpt lat="42.07212" lon="9.14301">
        <ele>1881.4372558594</ele>
        <time>2015-06-24T07:50:39Z</time>
      </trkpt>
      <trkpt lat="42.07204" lon="9.14292">
        <ele>1880.4760742188</ele>
        <time>2015-06-24T07:50:55Z</time>
      </trkpt>
      <trkpt lat="42.07201" lon="9.14289">
        <ele>1881.91796875</ele>
        <time>2015-06-24T07:50:59Z</time>
      </trkpt>
      <trkpt lat="42.07187" lon="9.14282">
        <ele>1883.3598632812</ele>
        <time>2015-06-24T07:51:16Z</time>
      </trkpt>
      <trkpt lat="42.0718" lon="9.14274">
        <ele>1884.8022460938</ele>
        <time>2015-06-24T07:51:28Z</time>
      </trkpt>
      <trkpt lat="42.0718" lon="9.14259">
        <ele>1886.724609375</ele>
        <time>2015-06-24T07:51:44Z</time>
      </trkpt>
      <trkpt lat="42.07176" lon="9.14251">
        <ele>1889.6086425781</ele>
        <time>2015-06-24T07:51:56Z</time>
      </trkpt>
      <trkpt lat="42.07173" lon="9.14244">
        <ele>1891.0505371094</ele>
        <time>2015-06-24T07:52:04Z</time>
      </trkpt>
      <trkpt lat="42.07168" lon="9.14235">
        <ele>1891.53125</ele>
        <time>2015-06-24T07:52:20Z</time>
      </trkpt>
      <trkpt lat="42.07168" lon="9.14226">
        <ele>1891.53125</ele>
        <time>2015-06-24T07:52:35Z</time>
      </trkpt>
      <trkpt lat="42.07168" lon="9.14225">
        <ele>1891.0505371094</ele>
        <time>2015-06-24T07:52:36Z</time>
      </trkpt>
      <trkpt lat="42.0717" lon="9.14204">
        <ele>1892.4926757812</ele>
        <time>2015-06-24T07:52:52Z</time>
      </trkpt>
      <trkpt lat="42.07168" lon="9.14191">
        <ele>1892.9731445312</ele>
        <time>2015-06-24T07:53:05Z</time>
      </trkpt>
      <trkpt lat="42.07163" lon="9.14186">
        <ele>1894.4150390625</ele>
        <time>2015-06-24T07:53:13Z</time>
      </trkpt>
      <trkpt lat="42.07151" lon="9.14186">
        <ele>1896.337890625</ele>
        <time>2015-06-24T07:53:29Z</time>
      </trkpt>
      <trkpt lat="42.07149" lon="9.14187">
        <ele>1895.8571777344</ele>
        <time>2015-06-24T07:53:32Z</time>
      </trkpt>
      <trkpt lat="42.07145" lon="9.1419">
        <ele>1895.3764648438</ele>
        <time>2015-06-24T07:53:37Z</time>
      </trkpt>
      <trkpt lat="42.07139" lon="9.14186">
        <ele>1897.2990722656</ele>
        <time>2015-06-24T07:53:48Z</time>
      </trkpt>
      <trkpt lat="42.07125" lon="9.14176">
        <ele>1898.2602539062</ele>
        <time>2015-06-24T07:54:05Z</time>
      </trkpt>
      <trkpt lat="42.07119" lon="9.14168">
        <ele>1898.2602539062</ele>
        <time>2015-06-24T07:54:16Z</time>
      </trkpt>
      <trkpt lat="42.07104" lon="9.14161">
        <ele>1898.7409667969</ele>
        <time>2015-06-24T07:54:33Z</time>
      </trkpt>
      <trkpt lat="42.07091" lon="9.14156">
        <ele>1900.1833496094</ele>
        <time>2015-06-24T07:54:48Z</time>
      </trkpt>
      <trkpt lat="42.07079" lon="9.14147">
        <ele>1903.0671386719</ele>
        <time>2015-06-24T07:55:08Z</time>
      </trkpt>
      <trkpt lat="42.07072" lon="9.14141">
        <ele>1904.5090332031</ele>
        <time>2015-06-24T07:55:20Z</time>
      </trkpt>
      <trkpt lat="42.07066" lon="9.14138">
        <ele>1905.9509277344</ele>
        <time>2015-06-24T07:55:32Z</time>
      </trkpt>
      <trkpt lat="42.07063" lon="9.14131">
        <ele>1907.8737792969</ele>
        <time>2015-06-24T07:55:47Z</time>
      </trkpt>
      <trkpt lat="42.07053" lon="9.14136">
        <ele>1910.2768554688</ele>
        <time>2015-06-24T07:56:03Z</time>
      </trkpt>
      <trkpt lat="42.07047" lon="9.14127">
        <ele>1911.7189941406</ele>
        <time>2015-06-24T07:56:18Z</time>
      </trkpt>
      <trkpt lat="42.07043" lon="9.14121">
        <ele>1912.1994628906</ele>
        <time>2015-06-24T07:56:30Z</time>
      </trkpt>
      <trkpt lat="42.07044" lon="9.14117">
        <ele>1915.5642089844</ele>
        <time>2015-06-24T07:56:38Z</time>
      </trkpt>
      <trkpt lat="42.07044" lon="9.14116">
        <ele>1915.5642089844</ele>
        <time>2015-06-24T07:56:39Z</time>
      </trkpt>
      <trkpt lat="42.07052" lon="9.14102">
        <ele>1917.0063476562</ele>
        <time>2015-06-24T07:56:56Z</time>
      </trkpt>
      <trkpt lat="42.07054" lon="9.1409">
        <ele>1918.4482421875</ele>
        <time>2015-06-24T07:57:11Z</time>
      </trkpt>
      <trkpt lat="42.07057" lon="9.14077">
        <ele>1920.3708496094</ele>
        <time>2015-06-24T07:57:26Z</time>
      </trkpt>
      <trkpt lat="42.07061" lon="9.14062">
        <ele>1923.7353515625</ele>
        <time>2015-06-24T07:57:42Z</time>
      </trkpt>
      <trkpt lat="42.07059" lon="9.14049">
        <ele>1925.6579589844</ele>
        <time>2015-06-24T07:57:59Z</time>
      </trkpt>
      <trkpt lat="42.07054" lon="9.14041">
        <ele>1929.0224609375</ele>
        <time>2015-06-24T07:58:12Z</time>
      </trkpt>
      <trkpt lat="42.07055" lon="9.14034">
        <ele>1929.0224609375</ele>
        <time>2015-06-24T07:58:26Z</time>
      </trkpt>
      <trkpt lat="42.07056" lon="9.14023">
        <ele>1930.4645996094</ele>
        <time>2015-06-24T07:58:41Z</time>
      </trkpt>
      <trkpt lat="42.0706" lon="9.14013">
        <ele>1933.3486328125</ele>
        <time>2015-06-24T07:58:54Z</time>
      </trkpt>
      <trkpt lat="42.07061" lon="9.14001">
        <ele>1935.751953125</ele>
        <time>2015-06-24T07:59:09Z</time>
      </trkpt>
      <trkpt lat="42.07062" lon="9.13994">
        <ele>1936.7131347656</ele>
        <time>2015-06-24T07:59:31Z</time>
      </trkpt>
      <trkpt lat="42.07062" lon="9.13987">
        <ele>1938.1552734375</ele>
        <time>2015-06-24T07:59:45Z</time>
      </trkpt>
      <trkpt lat="42.07055" lon="9.13978">
        <ele>1941.0390625</ele>
        <time>2015-06-24T08:00:02Z</time>
      </trkpt>
      <trkpt lat="42.07054" lon="9.13968">
        <ele>1943.4423828125</ele>
        <time>2015-06-24T08:00:17Z</time>
      </trkpt>
      <trkpt lat="42.07054" lon="9.13959">
        <ele>1946.3264160156</ele>
        <time>2015-06-24T08:00:29Z</time>
      </trkpt>
      <trkpt lat="42.07051" lon="9.1395">
        <ele>1947.7683105469</ele>
        <time>2015-06-24T08:00:45Z</time>
      </trkpt>
      <trkpt lat="42.07049" lon="9.13943">
        <ele>1948.2490234375</ele>
        <time>2015-06-24T08:00:58Z</time>
      </trkpt>
      <trkpt lat="42.07052" lon="9.13929">
        <ele>1951.6137695312</ele>
        <time>2015-06-24T08:01:14Z</time>
      </trkpt>
      <trkpt lat="42.07051" lon="9.13917">
        <ele>1954.0170898438</ele>
        <time>2015-06-24T08:01:29Z</time>
      </trkpt>
      <trkpt lat="42.07051" lon="9.13902">
        <ele>1955.939453125</ele>
        <time>2015-06-24T08:01:45Z</time>
      </trkpt>
      <trkpt lat="42.07047" lon="9.13895">
        <ele>1958.8234863281</ele>
        <time>2015-06-24T08:01:57Z</time>
      </trkpt>
      <trkpt lat="42.07043" lon="9.13886">
        <ele>1960.74609375</ele>
        <time>2015-06-24T08:02:14Z</time>
      </trkpt>
      <trkpt lat="42.07041" lon="9.1388">
        <ele>1962.6687011719</ele>
        <time>2015-06-24T08:02:27Z</time>
      </trkpt>
      <trkpt lat="42.07046" lon="9.13875">
        <ele>1963.6298828125</ele>
        <time>2015-06-24T08:02:40Z</time>
      </trkpt>
      <trkpt lat="42.07047" lon="9.13871">
        <ele>1965.072265625</ele>
        <time>2015-06-24T08:02:48Z</time>
      </trkpt>
      <trkpt lat="42.07048" lon="9.13858">
        <ele>1966.5141601562</ele>
        <time>2015-06-24T08:03:04Z</time>
      </trkpt>
      <trkpt lat="42.07051" lon="9.1385">
        <ele>1967.9560546875</ele>
        <time>2015-06-24T08:03:17Z</time>
      </trkpt>
      <trkpt lat="42.0705" lon="9.13837">
        <ele>1971.8012695312</ele>
        <time>2015-06-24T08:03:32Z</time>
      </trkpt>
      <trkpt lat="42.0705" lon="9.1383">
        <ele>1973.2434082031</ele>
        <time>2015-06-24T08:03:45Z</time>
      </trkpt>
      <trkpt lat="42.07051" lon="9.13821">
        <ele>1974.6853027344</ele>
        <time>2015-06-24T08:04:01Z</time>
      </trkpt>
      <trkpt lat="42.07048" lon="9.13815">
        <ele>1978.0498046875</ele>
        <time>2015-06-24T08:04:13Z</time>
      </trkpt>
      <trkpt lat="42.07052" lon="9.13802">
        <ele>1979.9724121094</ele>
        <time>2015-06-24T08:04:31Z</time>
      </trkpt>
      <trkpt lat="42.07049" lon="9.13797">
        <ele>1981.4145507812</ele>
        <time>2015-06-24T08:04:41Z</time>
      </trkpt>
      <trkpt lat="42.07045" lon="9.13789">
        <ele>1984.779296875</ele>
        <time>2015-06-24T08:04:55Z</time>
      </trkpt>
      <trkpt lat="42.07039" lon="9.13786">
        <ele>1984.2985839844</ele>
        <time>2015-06-24T08:05:11Z</time>
      </trkpt>
      <trkpt lat="42.07038" lon="9.13786">
        <ele>1984.2985839844</ele>
        <time>2015-06-24T08:05:23Z</time>
      </trkpt>
      <trkpt lat="42.07035" lon="9.13788">
        <ele>1983.8178710938</ele>
        <time>2015-06-24T08:07:51Z</time>
      </trkpt>
      <trkpt lat="42.07033" lon="9.13779">
        <ele>1985.7404785156</ele>
        <time>2015-06-24T08:08:08Z</time>
      </trkpt>
      <trkpt lat="42.07032" lon="9.1377">
        <ele>1987.6630859375</ele>
        <time>2015-06-24T08:08:21Z</time>
      </trkpt>
      <trkpt lat="42.07027" lon="9.13765">
        <ele>1991.0275878906</ele>
        <time>2015-06-24T08:08:32Z</time>
      </trkpt>
      <trkpt lat="42.07027" lon="9.13757">
        <ele>1993.4309082031</ele>
        <time>2015-06-24T08:08:46Z</time>
      </trkpt>
      <trkpt lat="42.07018" lon="9.13752">
        <ele>1996.3151855469</ele>
        <time>2015-06-24T08:09:03Z</time>
      </trkpt>
      <trkpt lat="42.07013" lon="9.13743">
        <ele>1998.2375488281</ele>
        <time>2015-06-24T08:09:19Z</time>
      </trkpt>
      <trkpt lat="42.07007" lon="9.13741">
        <ele>2001.6022949219</ele>
        <time>2015-06-24T08:09:32Z</time>
      </trkpt>
      <trkpt lat="42.07001" lon="9.13739">
        <ele>2002.0827636719</ele>
        <time>2015-06-24T08:09:46Z</time>
      </trkpt>
      <trkpt lat="42.06993" lon="9.13737">
        <ele>2004.0056152344</ele>
        <time>2015-06-24T08:10:02Z</time>
      </trkpt>
      <trkpt lat="42.06994" lon="9.13729">
        <ele>2005.9279785156</ele>
        <time>2015-06-24T08:10:17Z</time>
      </trkpt>
      <trkpt lat="42.06995" lon="9.13727">
        <ele>2006.8894042969</ele>
        <time>2015-06-24T08:10:20Z</time>
      </trkpt>
      <trkpt lat="42.06991" lon="9.13717">
        <ele>2009.7731933594</ele>
        <time>2015-06-24T08:10:36Z</time>
      </trkpt>
      <trkpt lat="42.06988" lon="9.13706">
        <ele>2011.2153320312</ele>
        <time>2015-06-24T08:10:50Z</time>
      </trkpt>
      <trkpt lat="42.06988" lon="9.1369">
        <ele>2013.6186523438</ele>
        <time>2015-06-24T08:11:07Z</time>
      </trkpt>
      <trkpt lat="42.06986" lon="9.13682">
        <ele>2015.0607910156</ele>
        <time>2015-06-24T08:11:16Z</time>
      </trkpt>
      <trkpt lat="42.06984" lon="9.1367">
        <ele>2017.4638671875</ele>
        <time>2015-06-24T08:11:33Z</time>
      </trkpt>
      <trkpt lat="42.06977" lon="9.13655">
        <ele>2020.3479003906</ele>
        <time>2015-06-24T08:11:51Z</time>
      </trkpt>
      <trkpt lat="42.0697" lon="9.13642">
        <ele>2023.2319335938</ele>
        <time>2015-06-24T08:12:08Z</time>
      </trkpt>
      <trkpt lat="42.06963" lon="9.13636">
        <ele>2023.7124023438</ele>
        <time>2015-06-24T08:12:22Z</time>
      </trkpt>
      <trkpt lat="42.06955" lon="9.13627">
        <ele>2026.1157226562</ele>
        <time>2015-06-24T08:12:37Z</time>
      </trkpt>
      <trkpt lat="42.0695" lon="9.13615">
        <ele>2028.9997558594</ele>
        <time>2015-06-24T08:12:53Z</time>
      </trkpt>
      <trkpt lat="42.06947" lon="9.13599">
        <ele>2030.4418945312</ele>
        <time>2015-06-24T08:13:11Z</time>
      </trkpt>
      <trkpt lat="42.06941" lon="9.13586">
        <ele>2032.3645019531</ele>
        <time>2015-06-24T08:13:28Z</time>
      </trkpt>
      <trkpt lat="42.06933" lon="9.13577">
        <ele>2034.287109375</ele>
        <time>2015-06-24T08:13:43Z</time>
      </trkpt>
      <trkpt lat="42.06926" lon="9.13567">
        <ele>2035.2482910156</ele>
        <time>2015-06-24T08:14:00Z</time>
      </trkpt>
      <trkpt lat="42.06923" lon="9.13549">
        <ele>2037.1708984375</ele>
        <time>2015-06-24T08:14:19Z</time>
      </trkpt>
      <trkpt lat="42.06918" lon="9.13541">
        <ele>2038.6130371094</ele>
        <time>2015-06-24T08:14:33Z</time>
      </trkpt>
      <trkpt lat="42.06911" lon="9.13524">
        <ele>2040.5354003906</ele>
        <time>2015-06-24T08:14:50Z</time>
      </trkpt>
      <trkpt lat="42.06895" lon="9.13515">
        <ele>2042.4582519531</ele>
        <time>2015-06-24T08:15:08Z</time>
      </trkpt>
      <trkpt lat="42.06883" lon="9.13513">
        <ele>2043.9001464844</ele>
        <time>2015-06-24T08:15:21Z</time>
      </trkpt>
      <trkpt lat="42.06878" lon="9.13517">
        <ele>2045.8229980469</ele>
        <time>2015-06-24T08:15:29Z</time>
      </trkpt>
      <trkpt lat="42.0687" lon="9.13521">
        <ele>2046.7841796875</ele>
        <time>2015-06-24T08:15:43Z</time>
      </trkpt>
      <trkpt lat="42.06868" lon="9.13509">
        <ele>2049.1875</ele>
        <time>2015-06-24T08:15:59Z</time>
      </trkpt>
      <trkpt lat="42.06864" lon="9.13495">
        <ele>2050.6293945312</ele>
        <time>2015-06-24T08:16:14Z</time>
      </trkpt>
      <trkpt lat="42.0686" lon="9.13495">
        <ele>2051.1101074219</ele>
        <time>2015-06-24T08:16:27Z</time>
      </trkpt>
      <trkpt lat="42.06855" lon="9.13503">
        <ele>2053.994140625</ele>
        <time>2015-06-24T08:16:43Z</time>
      </trkpt>
      <trkpt lat="42.06856" lon="9.13492">
        <ele>2056.3972167969</ele>
        <time>2015-06-24T08:16:57Z</time>
      </trkpt>
      <trkpt lat="42.06852" lon="9.13493">
        <ele>2057.8393554688</ele>
        <time>2015-06-24T08:17:11Z</time>
      </trkpt>
      <trkpt lat="42.06847" lon="9.13496">
        <ele>2060.7233886719</ele>
        <time>2015-06-24T08:17:26Z</time>
      </trkpt>
      <trkpt lat="42.0684" lon="9.13496">
        <ele>2063.6071777344</ele>
        <time>2015-06-24T08:17:42Z</time>
      </trkpt>
      <trkpt lat="42.06833" lon="9.13499">
        <ele>2066.0104980469</ele>
        <time>2015-06-24T08:18:00Z</time>
      </trkpt>
      <trkpt lat="42.06827" lon="9.13498">
        <ele>2068.4138183594</ele>
        <time>2015-06-24T08:18:13Z</time>
      </trkpt>
      <trkpt lat="42.06827" lon="9.1349">
        <ele>2069.3752441406</ele>
        <time>2015-06-24T08:18:28Z</time>
      </trkpt>
      <trkpt lat="42.06827" lon="9.13485">
        <ele>2071.2976074219</ele>
        <time>2015-06-24T08:18:43Z</time>
      </trkpt>
      <trkpt lat="42.06822" lon="9.13485">
        <ele>2074.181640625</ele>
        <time>2015-06-24T08:18:54Z</time>
      </trkpt>
      <trkpt lat="42.06822" lon="9.13479">
        <ele>2076.5852050781</ele>
        <time>2015-06-24T08:19:12Z</time>
      </trkpt>
      <trkpt lat="42.06819" lon="9.13477">
        <ele>2078.5078125</ele>
        <time>2015-06-24T08:19:26Z</time>
      </trkpt>
      <trkpt lat="42.06815" lon="9.13478">
        <ele>2081.3916015625</ele>
        <time>2015-06-24T08:19:41Z</time>
      </trkpt>
      <trkpt lat="42.06815" lon="9.13478">
        <ele>2081.8723144531</ele>
        <time>2015-06-24T08:19:42Z</time>
      </trkpt>
      <trkpt lat="42.06813" lon="9.13472">
        <ele>2083.794921875</ele>
        <time>2015-06-24T08:20:02Z</time>
      </trkpt>
      <trkpt lat="42.06809" lon="9.13468">
        <ele>2084.7563476562</ele>
        <time>2015-06-24T08:20:16Z</time>
      </trkpt>
      <trkpt lat="42.06807" lon="9.13463">
        <ele>2086.6787109375</ele>
        <time>2015-06-24T08:20:29Z</time>
      </trkpt>
      <trkpt lat="42.06804" lon="9.13458">
        <ele>2088.6015625</ele>
        <time>2015-06-24T08:20:42Z</time>
      </trkpt>
      <trkpt lat="42.06803" lon="9.13452">
        <ele>2089.5627441406</ele>
        <time>2015-06-24T08:20:55Z</time>
      </trkpt>
      <trkpt lat="42.06797" lon="9.13445">
        <ele>2091.4853515625</ele>
        <time>2015-06-24T08:21:12Z</time>
      </trkpt>
      <trkpt lat="42.0679" lon="9.13437">
        <ele>2092.9274902344</ele>
        <time>2015-06-24T08:21:27Z</time>
      </trkpt>
      <trkpt lat="42.06779" lon="9.13432">
        <ele>2093.8889160156</ele>
        <time>2015-06-24T08:21:44Z</time>
      </trkpt>
      <trkpt lat="42.06771" lon="9.13432">
        <ele>2094.8500976562</ele>
        <time>2015-06-24T08:21:59Z</time>
      </trkpt>
      <trkpt lat="42.06767" lon="9.13436">
        <ele>2095.8115234375</ele>
        <time>2015-06-24T08:22:16Z</time>
      </trkpt>
      <trkpt lat="42.06764" lon="9.13438">
        <ele>2095.8115234375</ele>
        <time>2015-06-24T08:22:35Z</time>
      </trkpt>
      <trkpt lat="42.06758" lon="9.13434">
        <ele>2094.8500976562</ele>
        <time>2015-06-24T08:23:24Z</time>
      </trkpt>
      <trkpt lat="42.06751" lon="9.13433">
        <ele>2094.8500976562</ele>
        <time>2015-06-24T08:23:38Z</time>
      </trkpt>
      <trkpt lat="42.06751" lon="9.13432">
        <ele>2094.8500976562</ele>
        <time>2015-06-24T08:23:58Z</time>
      </trkpt>
      <trkpt lat="42.06751" lon="9.13431">
        <ele>2094.8500976562</ele>
        <time>2015-06-24T08:24:43Z</time>
      </trkpt>
      <trkpt lat="42.0675" lon="9.13432">
        <ele>2095.3308105469</ele>
        <time>2015-06-24T08:25:10Z</time>
      </trkpt>
      <trkpt lat="42.06746" lon="9.13434">
        <ele>2094.8500976562</ele>
        <time>2015-06-24T08:25:29Z</time>
      </trkpt>
      <trkpt lat="42.0674" lon="9.13438">
        <ele>2092.9274902344</ele>
        <time>2015-06-24T08:25:43Z</time>
      </trkpt>
      <trkpt lat="42.06734" lon="9.13437">
        <ele>2092.4470214844</ele>
        <time>2015-06-24T08:26:02Z</time>
      </trkpt>
      <trkpt lat="42.06728" lon="9.13435">
        <ele>2091.9660644531</ele>
        <time>2015-06-24T08:26:26Z</time>
      </trkpt>
      <trkpt lat="42.06724" lon="9.13432">
        <ele>2092.4470214844</ele>
        <time>2015-06-24T08:26:38Z</time>
      </trkpt>
      <trkpt lat="42.06727" lon="9.1343">
        <ele>2091.9660644531</ele>
        <time>2015-06-24T08:26:56Z</time>
      </trkpt>
      <trkpt lat="42.06725" lon="9.13424">
        <ele>2092.4470214844</ele>
        <time>2015-06-24T08:27:11Z</time>
      </trkpt>
      <trkpt lat="42.0672" lon="9.13415">
        <ele>2090.0434570312</ele>
        <time>2015-06-24T08:27:25Z</time>
      </trkpt>
      <trkpt lat="42.06718" lon="9.13393">
        <ele>2090.5239257812</ele>
        <time>2015-06-24T08:27:44Z</time>
      </trkpt>
      <trkpt lat="42.06715" lon="9.13384">
        <ele>2089.5627441406</ele>
        <time>2015-06-24T08:28:02Z</time>
      </trkpt>
      <trkpt lat="42.06712" lon="9.13369">
        <ele>2091.4853515625</ele>
        <time>2015-06-24T08:28:17Z</time>
      </trkpt>
      <trkpt lat="42.06716" lon="9.13361">
        <ele>2093.8889160156</ele>
        <time>2015-06-24T08:28:32Z</time>
      </trkpt>
      <trkpt lat="42.0672" lon="9.13346">
        <ele>2094.8500976562</ele>
        <time>2015-06-24T08:28:46Z</time>
      </trkpt>
      <trkpt lat="42.0672" lon="9.13336">
        <ele>2095.3308105469</ele>
        <time>2015-06-24T08:29:00Z</time>
      </trkpt>
      <trkpt lat="42.06719" lon="9.13326">
        <ele>2097.7341308594</ele>
        <time>2015-06-24T08:29:14Z</time>
      </trkpt>
      <trkpt lat="42.06722" lon="9.13316">
        <ele>2099.6567382812</ele>
        <time>2015-06-24T08:29:27Z</time>
      </trkpt>
      <trkpt lat="42.06724" lon="9.13309">
        <ele>2101.0986328125</ele>
        <time>2015-06-24T08:29:39Z</time>
      </trkpt>
      <trkpt lat="42.06718" lon="9.133">
        <ele>2102.5405273438</ele>
        <time>2015-06-24T08:29:53Z</time>
      </trkpt>
      <trkpt lat="42.06724" lon="9.13293">
        <ele>2103.501953125</ele>
        <time>2015-06-24T08:30:06Z</time>
      </trkpt>
      <trkpt lat="42.06733" lon="9.13293">
        <ele>2105.4245605469</ele>
        <time>2015-06-24T08:30:20Z</time>
      </trkpt>
      <trkpt lat="42.06734" lon="9.13285">
        <ele>2104.9438476562</ele>
        <time>2015-06-24T08:30:27Z</time>
      </trkpt>
      <trkpt lat="42.06733" lon="9.1327">
        <ele>2105.9050292969</ele>
        <time>2015-06-24T08:30:41Z</time>
      </trkpt>
      <trkpt lat="42.06739" lon="9.13251">
        <ele>2106.8664550781</ele>
        <time>2015-06-24T08:30:56Z</time>
      </trkpt>
      <trkpt lat="42.06744" lon="9.13226">
        <ele>2107.8278808594</ele>
        <time>2015-06-24T08:31:16Z</time>
      </trkpt>
      <trkpt lat="42.06746" lon="9.13206">
        <ele>2109.2700195312</ele>
        <time>2015-06-24T08:31:31Z</time>
      </trkpt>
      <trkpt lat="42.06752" lon="9.13196">
        <ele>2111.1926269531</ele>
        <time>2015-06-24T08:31:46Z</time>
      </trkpt>
      <trkpt lat="42.06757" lon="9.13185">
        <ele>2112.6345214844</ele>
        <time>2015-06-24T08:32:00Z</time>
      </trkpt>
      <trkpt lat="42.06762" lon="9.13179">
        <ele>2115.9990234375</ele>
        <time>2015-06-24T08:32:13Z</time>
      </trkpt>
      <trkpt lat="42.06765" lon="9.13169">
        <ele>2118.40234375</ele>
        <time>2015-06-24T08:32:28Z</time>
      </trkpt>
      <trkpt lat="42.06768" lon="9.1316">
        <ele>2120.8056640625</ele>
        <time>2015-06-24T08:32:40Z</time>
      </trkpt>
      <trkpt lat="42.06769" lon="9.13149">
        <ele>2121.7668457031</ele>
        <time>2015-06-24T08:32:52Z</time>
      </trkpt>
      <trkpt lat="42.0677" lon="9.13146">
        <ele>2124.6511230469</ele>
        <time>2015-06-24T08:32:58Z</time>
      </trkpt>
      <trkpt lat="42.06771" lon="9.1314">
        <ele>2126.0930175781</ele>
        <time>2015-06-24T08:33:10Z</time>
      </trkpt>
      <trkpt lat="42.06774" lon="9.13135">
        <ele>2127.5349121094</ele>
        <time>2015-06-24T08:33:33Z</time>
      </trkpt>
      <trkpt lat="42.0678" lon="9.13132">
        <ele>2130.8996582031</ele>
        <time>2015-06-24T08:33:46Z</time>
      </trkpt>
      <trkpt lat="42.06783" lon="9.13131">
        <ele>2132.3415527344</ele>
        <time>2015-06-24T08:34:00Z</time>
      </trkpt>
      <trkpt lat="42.06785" lon="9.13127">
        <ele>2133.302734375</ele>
        <time>2015-06-24T08:34:14Z</time>
      </trkpt>
      <trkpt lat="42.06791" lon="9.1313">
        <ele>2135.2253417969</ele>
        <time>2015-06-24T08:34:29Z</time>
      </trkpt>
      <trkpt lat="42.06792" lon="9.13122">
        <ele>2136.1867675781</ele>
        <time>2015-06-24T08:34:44Z</time>
      </trkpt>
      <trkpt lat="42.06793" lon="9.13109">
        <ele>2139.5512695312</ele>
        <time>2015-06-24T08:35:01Z</time>
      </trkpt>
      <trkpt lat="42.06795" lon="9.13097">
        <ele>2142.435546875</ele>
        <time>2015-06-24T08:35:17Z</time>
      </trkpt>
      <trkpt lat="42.0679" lon="9.13089">
        <ele>2144.8386230469</ele>
        <time>2015-06-24T08:35:32Z</time>
      </trkpt>
      <trkpt lat="42.06785" lon="9.13083">
        <ele>2147.72265625</ele>
        <time>2015-06-24T08:35:45Z</time>
      </trkpt>
      <trkpt lat="42.06779" lon="9.13076">
        <ele>2150.1259765625</ele>
        <time>2015-06-24T08:36:00Z</time>
      </trkpt>
      <trkpt lat="42.06775" lon="9.13075">
        <ele>2150.6064453125</ele>
        <time>2015-06-24T08:36:26Z</time>
      </trkpt>
      <trkpt lat="42.06774" lon="9.13067">
        <ele>2152.0483398438</ele>
        <time>2015-06-24T08:36:40Z</time>
      </trkpt>
      <trkpt lat="42.06767" lon="9.1306">
        <ele>2154.9323730469</ele>
        <time>2015-06-24T08:36:54Z</time>
      </trkpt>
      <trkpt lat="42.06765" lon="9.13048">
        <ele>2158.2971191406</ele>
        <time>2015-06-24T08:37:09Z</time>
      </trkpt>
      <trkpt lat="42.06765" lon="9.13034">
        <ele>2159.7390136719</ele>
        <time>2015-06-24T08:37:26Z</time>
      </trkpt>
      <trkpt lat="42.06757" lon="9.13024">
        <ele>2161.6618652344</ele>
        <time>2015-06-24T08:37:45Z</time>
      </trkpt>
      <trkpt lat="42.0676" lon="9.13016">
        <ele>2161.6618652344</ele>
        <time>2015-06-24T08:37:59Z</time>
      </trkpt>
      <trkpt lat="42.06763" lon="9.13007">
        <ele>2163.5842285156</ele>
        <time>2015-06-24T08:38:14Z</time>
      </trkpt>
      <trkpt lat="42.06758" lon="9.13007">
        <ele>2166.4682617188</ele>
        <time>2015-06-24T08:38:28Z</time>
      </trkpt>
      <trkpt lat="42.06757" lon="9.13006">
        <ele>2166.4682617188</ele>
        <time>2015-06-24T08:38:32Z</time>
      </trkpt>
      <trkpt lat="42.06756" lon="9.12999">
        <ele>2169.8327636719</ele>
        <time>2015-06-24T08:38:49Z</time>
      </trkpt>
      <trkpt lat="42.06757" lon="9.12996">
        <ele>2170.7941894531</ele>
        <time>2015-06-24T08:38:53Z</time>
      </trkpt>
      <trkpt lat="42.06756" lon="9.12987">
        <ele>2172.7170410156</ele>
        <time>2015-06-24T08:39:08Z</time>
      </trkpt>
      <trkpt lat="42.06755" lon="9.12981">
        <ele>2174.1589355469</ele>
        <time>2015-06-24T08:39:23Z</time>
      </trkpt>
      <trkpt lat="42.06756" lon="9.12974">
        <ele>2175.1201171875</ele>
        <time>2015-06-24T08:39:34Z</time>
      </trkpt>
      <trkpt lat="42.06747" lon="9.12971">
        <ele>2177.5234375</ele>
        <time>2015-06-24T08:39:51Z</time>
      </trkpt>
      <trkpt lat="42.06742" lon="9.12966">
        <ele>2178.9653320312</ele>
        <time>2015-06-24T08:40:04Z</time>
      </trkpt>
      <trkpt lat="42.06741" lon="9.12958">
        <ele>2182.330078125</ele>
        <time>2015-06-24T08:40:20Z</time>
      </trkpt>
      <trkpt lat="42.06736" lon="9.12953">
        <ele>2183.2912597656</ele>
        <time>2015-06-24T08:40:34Z</time>
      </trkpt>
      <trkpt lat="42.06729" lon="9.12947">
        <ele>2185.2138671875</ele>
        <time>2015-06-24T08:40:47Z</time>
      </trkpt>
      <trkpt lat="42.0672" lon="9.1294">
        <ele>2187.1364746094</ele>
        <time>2015-06-24T08:41:03Z</time>
      </trkpt>
      <trkpt lat="42.06714" lon="9.12937">
        <ele>2189.0593261719</ele>
        <time>2015-06-24T08:41:16Z</time>
      </trkpt>
      <trkpt lat="42.06714" lon="9.12932">
        <ele>2190.0207519531</ele>
        <time>2015-06-24T08:41:32Z</time>
      </trkpt>
      <trkpt lat="42.06711" lon="9.12929">
        <ele>2191.943359375</ele>
        <time>2015-06-24T08:41:45Z</time>
      </trkpt>
      <trkpt lat="42.06705" lon="9.12927">
        <ele>2193.8659667969</ele>
        <time>2015-06-24T08:42:00Z</time>
      </trkpt>
      <trkpt lat="42.067" lon="9.12925">
        <ele>2196.2692871094</ele>
        <time>2015-06-24T08:42:10Z</time>
      </trkpt>
      <trkpt lat="42.06697" lon="9.12923">
        <ele>2197.7111816406</ele>
        <time>2015-06-24T08:42:29Z</time>
      </trkpt>
      <trkpt lat="42.06697" lon="9.12916">
        <ele>2199.6337890625</ele>
        <time>2015-06-24T08:42:53Z</time>
      </trkpt>
      <trkpt lat="42.06698" lon="9.12911">
        <ele>2201.0756835938</ele>
        <time>2015-06-24T08:43:09Z</time>
      </trkpt>
      <trkpt lat="42.06693" lon="9.12909">
        <ele>2203.4790039062</ele>
        <time>2015-06-24T08:43:22Z</time>
      </trkpt>
      <trkpt lat="42.06685" lon="9.1291">
        <ele>2205.4018554688</ele>
        <time>2015-06-24T08:43:37Z</time>
      </trkpt>
      <trkpt lat="42.06683" lon="9.12906">
        <ele>2207.8051757812</ele>
        <time>2015-06-24T08:43:51Z</time>
      </trkpt>
      <trkpt lat="42.06676" lon="9.12908">
        <ele>2208.7663574219</ele>
        <time>2015-06-24T08:44:04Z</time>
      </trkpt>
      <trkpt lat="42.06668" lon="9.12913">
        <ele>2211.1696777344</ele>
        <time>2015-06-24T08:44:21Z</time>
      </trkpt>
      <trkpt lat="42.06665" lon="9.12913">
        <ele>2210.6889648438</ele>
        <time>2015-06-24T08:44:39Z</time>
      </trkpt>
      <trkpt lat="42.06661" lon="9.12914">
        <ele>2211.1696777344</ele>
        <time>2015-06-24T08:44:57Z</time>
      </trkpt>
      <trkpt lat="42.0666" lon="9.12915">
        <ele>2212.6115722656</ele>
        <time>2015-06-24T08:44:59Z</time>
      </trkpt>
      <trkpt lat="42.06651" lon="9.12916">
        <ele>2214.5341796875</ele>
        <time>2015-06-24T08:45:14Z</time>
      </trkpt>
      <trkpt lat="42.06651" lon="9.1291">
        <ele>2215.4956054688</ele>
        <time>2015-06-24T08:45:27Z</time>
      </trkpt>
      <trkpt lat="42.06647" lon="9.12908">
        <ele>2218.8601074219</ele>
        <time>2015-06-24T08:45:36Z</time>
      </trkpt>
      <trkpt lat="42.06646" lon="9.12908">
        <ele>2218.3793945312</ele>
        <time>2015-06-24T08:45:37Z</time>
      </trkpt>
      <trkpt lat="42.06642" lon="9.12904">
        <ele>2222.2248535156</ele>
        <time>2015-06-24T08:45:53Z</time>
      </trkpt>
      <trkpt lat="42.06644" lon="9.12897">
        <ele>2224.6281738281</ele>
        <time>2015-06-24T08:46:11Z</time>
      </trkpt>
      <trkpt lat="42.06642" lon="9.1289">
        <ele>2225.5893554688</ele>
        <time>2015-06-24T08:46:26Z</time>
      </trkpt>
      <trkpt lat="42.06636" lon="9.12891">
        <ele>2227.9926757812</ele>
        <time>2015-06-24T08:46:40Z</time>
      </trkpt>
      <trkpt lat="42.06638" lon="9.12884">
        <ele>2229.9152832031</ele>
        <time>2015-06-24T08:46:55Z</time>
      </trkpt>
      <trkpt lat="42.06634" lon="9.12879">
        <ele>2231.837890625</ele>
        <time>2015-06-24T08:47:10Z</time>
      </trkpt>
      <trkpt lat="42.06634" lon="9.12868">
        <ele>2234.2412109375</ele>
        <time>2015-06-24T08:47:26Z</time>
      </trkpt>
      <trkpt lat="42.06638" lon="9.12861">
        <ele>2234.7219238281</ele>
        <time>2015-06-24T08:47:40Z</time>
      </trkpt>
      <trkpt lat="42.06634" lon="9.12857">
        <ele>2236.1640625</ele>
        <time>2015-06-24T08:47:54Z</time>
      </trkpt>
      <trkpt lat="42.0663" lon="9.1285">
        <ele>2237.6059570312</ele>
        <time>2015-06-24T08:48:08Z</time>
      </trkpt>
      <trkpt lat="42.06622" lon="9.12847">
        <ele>2238.5673828125</ele>
        <time>2015-06-24T08:48:26Z</time>
      </trkpt>
      <trkpt lat="42.06619" lon="9.12849">
        <ele>2239.0478515625</ele>
        <time>2015-06-24T08:48:39Z</time>
      </trkpt>
      <trkpt lat="42.06614" lon="9.12852">
        <ele>2238.0866699219</ele>
        <time>2015-06-24T08:48:44Z</time>
      </trkpt>
      <trkpt lat="42.06601" lon="9.1286">
        <ele>2240.0092773438</ele>
        <time>2015-06-24T08:49:01Z</time>
      </trkpt>
      <trkpt lat="42.06594" lon="9.12855">
        <ele>2240.9704589844</ele>
        <time>2015-06-24T08:49:11Z</time>
      </trkpt>
      <trkpt lat="42.0658" lon="9.12847">
        <ele>2241.9318847656</ele>
        <time>2015-06-24T08:49:27Z</time>
      </trkpt>
      <trkpt lat="42.06566" lon="9.12839">
        <ele>2242.4125976562</ele>
        <time>2015-06-24T08:49:45Z</time>
      </trkpt>
      <trkpt lat="42.06557" lon="9.12826">
        <ele>2243.8544921875</ele>
        <time>2015-06-24T08:50:02Z</time>
      </trkpt>
      <trkpt lat="42.06556" lon="9.12824">
        <ele>2246.73828125</ele>
        <time>2015-06-24T08:50:25Z</time>
      </trkpt>
      <trkpt lat="42.06556" lon="9.12824">
        <ele>2245.2963867188</ele>
        <time>2015-06-24T08:50:28Z</time>
      </trkpt>
      <trkpt lat="42.06555" lon="9.12824">
        <ele>2243.3737792969</ele>
        <time>2015-06-24T08:50:32Z</time>
      </trkpt>
      <trkpt lat="42.06547" lon="9.12832">
        <ele>2244.3349609375</ele>
        <time>2015-06-24T08:50:58Z</time>
      </trkpt>
      <trkpt lat="42.06534" lon="9.12834">
        <ele>2243.3737792969</ele>
        <time>2015-06-24T08:51:16Z</time>
      </trkpt>
      <trkpt lat="42.0652" lon="9.12839">
        <ele>2244.3349609375</ele>
        <time>2015-06-24T08:51:35Z</time>
      </trkpt>
      <trkpt lat="42.06513" lon="9.12848">
        <ele>2245.7770996094</ele>
        <time>2015-06-24T08:51:52Z</time>
      </trkpt>
      <trkpt lat="42.06507" lon="9.12863">
        <ele>2248.1801757812</ele>
        <time>2015-06-24T08:52:10Z</time>
      </trkpt>
      <trkpt lat="42.06504" lon="9.12872">
        <ele>2247.2189941406</ele>
        <time>2015-06-24T08:52:27Z</time>
      </trkpt>
      <trkpt lat="42.065" lon="9.12896">
        <ele>2247.6997070312</ele>
        <time>2015-06-24T08:52:49Z</time>
      </trkpt>
      <trkpt lat="42.06496" lon="9.12906">
        <ele>2247.2189941406</ele>
        <time>2015-06-24T08:53:04Z</time>
      </trkpt>
      <trkpt lat="42.06486" lon="9.12912">
        <ele>2248.1801757812</ele>
        <time>2015-06-24T08:53:16Z</time>
      </trkpt>
      <trkpt lat="42.06482" lon="9.12916">
        <ele>2247.6997070312</ele>
        <time>2015-06-24T08:53:35Z</time>
      </trkpt>
      <trkpt lat="42.06471" lon="9.12927">
        <ele>2248.6608886719</ele>
        <time>2015-06-24T08:53:52Z</time>
      </trkpt>
      <trkpt lat="42.06453" lon="9.12934">
        <ele>2249.1416015625</ele>
        <time>2015-06-24T08:54:11Z</time>
      </trkpt>
      <trkpt lat="42.06428" lon="9.12945">
        <ele>2248.1801757812</ele>
        <time>2015-06-24T08:54:35Z</time>
      </trkpt>
      <trkpt lat="42.0641" lon="9.12957">
        <ele>2249.6223144531</ele>
        <time>2015-06-24T08:54:53Z</time>
      </trkpt>
      <trkpt lat="42.06404" lon="9.12958">
        <ele>2249.1416015625</ele>
        <time>2015-06-24T08:54:59Z</time>
      </trkpt>
      <trkpt lat="42.06381" lon="9.12956">
        <ele>2248.6608886719</ele>
        <time>2015-06-24T08:55:21Z</time>
      </trkpt>
      <trkpt lat="42.06351" lon="9.12958">
        <ele>2247.2189941406</ele>
        <time>2015-06-24T08:55:46Z</time>
      </trkpt>
      <trkpt lat="42.0632" lon="9.12967">
        <ele>2246.2578125</ele>
        <time>2015-06-24T08:56:13Z</time>
      </trkpt>
      <trkpt lat="42.06296" lon="9.12974">
        <ele>2247.2189941406</ele>
        <time>2015-06-24T08:56:34Z</time>
      </trkpt>
      <trkpt lat="42.06275" lon="9.12983">
        <ele>2249.1416015625</ele>
        <time>2015-06-24T08:56:55Z</time>
      </trkpt>
      <trkpt lat="42.06273" lon="9.12984">
        <ele>2248.1801757812</ele>
        <time>2015-06-24T08:56:57Z</time>
      </trkpt>
      <trkpt lat="42.06267" lon="9.12986">
        <ele>2250.1030273438</ele>
        <time>2015-06-24T08:57:03Z</time>
      </trkpt>
      <trkpt lat="42.06252" lon="9.12993">
        <ele>2251.544921875</ele>
        <time>2015-06-24T08:57:19Z</time>
      </trkpt>
      <trkpt lat="42.06244" lon="9.12997">
        <ele>2252.9870605469</ele>
        <time>2015-06-24T08:57:29Z</time>
      </trkpt>
      <trkpt lat="42.06227" lon="9.13003">
        <ele>2253.9484863281</ele>
        <time>2015-06-24T08:57:48Z</time>
      </trkpt>
      <trkpt lat="42.06212" lon="9.13011">
        <ele>2255.3903808594</ele>
        <time>2015-06-24T08:58:06Z</time>
      </trkpt>
      <trkpt lat="42.06197" lon="9.13019">
        <ele>2257.7937011719</ele>
        <time>2015-06-24T08:58:23Z</time>
      </trkpt>
      <trkpt lat="42.06184" lon="9.13026">
        <ele>2259.7160644531</ele>
        <time>2015-06-24T08:58:39Z</time>
      </trkpt>
      <trkpt lat="42.06173" lon="9.13029">
        <ele>2261.158203125</ele>
        <time>2015-06-24T08:58:55Z</time>
      </trkpt>
      <trkpt lat="42.06157" lon="9.13032">
        <ele>2263.0808105469</ele>
        <time>2015-06-24T08:59:14Z</time>
      </trkpt>
      <trkpt lat="42.06144" lon="9.13036">
        <ele>2265.0034179688</ele>
        <time>2015-06-24T08:59:30Z</time>
      </trkpt>
      <trkpt lat="42.06143" lon="9.13037">
        <ele>2265.0034179688</ele>
        <time>2015-06-24T08:59:49Z</time>
      </trkpt>
      <trkpt lat="42.06133" lon="9.13034">
        <ele>2265.4841308594</ele>
        <time>2015-06-24T09:00:05Z</time>
      </trkpt>
      <trkpt lat="42.06119" lon="9.13027">
        <ele>2264.0419921875</ele>
        <time>2015-06-24T09:00:20Z</time>
      </trkpt>
      <trkpt lat="42.06112" lon="9.13025">
        <ele>2263.0808105469</ele>
        <time>2015-06-24T09:00:28Z</time>
      </trkpt>
      <trkpt lat="42.06104" lon="9.1303">
        <ele>2265.9645996094</ele>
        <time>2015-06-24T09:00:43Z</time>
      </trkpt>
      <trkpt lat="42.06095" lon="9.13036">
        <ele>2269.3295898438</ele>
        <time>2015-06-24T09:00:59Z</time>
      </trkpt>
      <trkpt lat="42.06088" lon="9.13038">
        <ele>2271.251953125</ele>
        <time>2015-06-24T09:01:12Z</time>
      </trkpt>
      <trkpt lat="42.06078" lon="9.13044">
        <ele>2272.6940917969</ele>
        <time>2015-06-24T09:01:29Z</time>
      </trkpt>
      <trkpt lat="42.06068" lon="9.13048">
        <ele>2273.6552734375</ele>
        <time>2015-06-24T09:01:44Z</time>
      </trkpt>
      <trkpt lat="42.06055" lon="9.13052">
        <ele>2274.1359863281</ele>
        <time>2015-06-24T09:02:02Z</time>
      </trkpt>
      <trkpt lat="42.06042" lon="9.13056">
        <ele>2274.6166992188</ele>
        <time>2015-06-24T09:02:19Z</time>
      </trkpt>
      <trkpt lat="42.06035" lon="9.13061">
        <ele>2276.05859375</ele>
        <time>2015-06-24T09:02:33Z</time>
      </trkpt>
      <trkpt lat="42.06025" lon="9.13064">
        <ele>2277.9812011719</ele>
        <time>2015-06-24T09:02:46Z</time>
      </trkpt>
      <trkpt lat="42.06017" lon="9.13066">
        <ele>2278.9423828125</ele>
        <time>2015-06-24T09:02:56Z</time>
      </trkpt>
      <trkpt lat="42.06003" lon="9.13071">
        <ele>2280.3845214844</ele>
        <time>2015-06-24T09:03:14Z</time>
      </trkpt>
      <trkpt lat="42.05989" lon="9.13075">
        <ele>2280.865234375</ele>
        <time>2015-06-24T09:03:31Z</time>
      </trkpt>
      <trkpt lat="42.05978" lon="9.13077">
        <ele>2280.865234375</ele>
        <time>2015-06-24T09:03:46Z</time>
      </trkpt>
      <trkpt lat="42.05964" lon="9.1308">
        <ele>2282.3071289062</ele>
        <time>2015-06-24T09:04:02Z</time>
      </trkpt>
      <trkpt lat="42.0596" lon="9.13086">
        <ele>2282.7875976562</ele>
        <time>2015-06-24T09:04:17Z</time>
      </trkpt>
      <trkpt lat="42.05954" lon="9.13095">
        <ele>2283.7490234375</ele>
        <time>2015-06-24T09:04:33Z</time>
      </trkpt>
      <trkpt lat="42.0596" lon="9.13097">
        <ele>2286.6330566406</ele>
        <time>2015-06-24T09:04:50Z</time>
      </trkpt>
      <trkpt lat="42.05961" lon="9.13105">
        <ele>2287.5944824219</ele>
        <time>2015-06-24T09:05:06Z</time>
      </trkpt>
      <trkpt lat="42.05959" lon="9.1311">
        <ele>2289.5170898438</ele>
        <time>2015-06-24T09:05:15Z</time>
      </trkpt>
      <trkpt lat="42.05955" lon="9.13121">
        <ele>2291.4396972656</ele>
        <time>2015-06-24T09:05:31Z</time>
      </trkpt>
      <trkpt lat="42.05949" lon="9.13131">
        <ele>2294.3234863281</ele>
        <time>2015-06-24T09:05:47Z</time>
      </trkpt>
      <trkpt lat="42.05951" lon="9.13141">
        <ele>2297.6882324219</ele>
        <time>2015-06-24T09:06:02Z</time>
      </trkpt>
      <trkpt lat="42.05952" lon="9.13144">
        <ele>2297.6882324219</ele>
        <time>2015-06-24T09:06:06Z</time>
      </trkpt>
      <trkpt lat="42.05952" lon="9.13153">
        <ele>2300.091796875</ele>
        <time>2015-06-24T09:06:22Z</time>
      </trkpt>
      <trkpt lat="42.05954" lon="9.13164">
        <ele>2301.5336914062</ele>
        <time>2015-06-24T09:06:37Z</time>
      </trkpt>
      <trkpt lat="42.05958" lon="9.13176">
        <ele>2304.4174804688</ele>
        <time>2015-06-24T09:06:54Z</time>
      </trkpt>
      <trkpt lat="42.05964" lon="9.13186">
        <ele>2305.37890625</ele>
        <time>2015-06-24T09:07:10Z</time>
      </trkpt>
      <trkpt lat="42.05965" lon="9.13186">
        <ele>2305.859375</ele>
        <time>2015-06-24T09:07:12Z</time>
      </trkpt>
      <trkpt lat="42.05972" lon="9.13195">
        <ele>2307.3015136719</ele>
        <time>2015-06-24T09:07:27Z</time>
      </trkpt>
      <trkpt lat="42.05975" lon="9.13209">
        <ele>2310.1853027344</ele>
        <time>2015-06-24T09:07:45Z</time>
      </trkpt>
      <trkpt lat="42.05979" lon="9.13214">
        <ele>2311.1467285156</ele>
        <time>2015-06-24T09:08:03Z</time>
      </trkpt>
      <trkpt lat="42.05983" lon="9.13225">
        <ele>2314.0305175781</ele>
        <time>2015-06-24T09:08:20Z</time>
      </trkpt>
      <trkpt lat="42.05976" lon="9.13232">
        <ele>2315.953125</ele>
        <time>2015-06-24T09:08:37Z</time>
      </trkpt>
      <trkpt lat="42.05982" lon="9.1324">
        <ele>2317.8759765625</ele>
        <time>2015-06-24T09:08:55Z</time>
      </trkpt>
      <trkpt lat="42.05975" lon="9.13248">
        <ele>2319.3181152344</ele>
        <time>2015-06-24T09:09:12Z</time>
      </trkpt>
      <trkpt lat="42.05966" lon="9.13253">
        <ele>2321.2404785156</ele>
        <time>2015-06-24T09:09:27Z</time>
      </trkpt>
      <trkpt lat="42.05955" lon="9.13259">
        <ele>2322.2019042969</ele>
        <time>2015-06-24T09:09:45Z</time>
      </trkpt>
      <trkpt lat="42.05958" lon="9.13273">
        <ele>2325.0856933594</ele>
        <time>2015-06-24T09:10:02Z</time>
      </trkpt>
      <trkpt lat="42.05962" lon="9.13287">
        <ele>2326.0471191406</ele>
        <time>2015-06-24T09:10:18Z</time>
      </trkpt>
      <trkpt lat="42.05962" lon="9.13303">
        <ele>2327.9697265625</ele>
        <time>2015-06-24T09:10:35Z</time>
      </trkpt>
      <trkpt lat="42.05963" lon="9.13312">
        <ele>2329.4116210938</ele>
        <time>2015-06-24T09:10:51Z</time>
      </trkpt>
      <trkpt lat="42.05966" lon="9.13319">
        <ele>2330.373046875</ele>
        <time>2015-06-24T09:11:11Z</time>
      </trkpt>
      <trkpt lat="42.05972" lon="9.13322">
        <ele>2331.8149414062</ele>
        <time>2015-06-24T09:11:34Z</time>
      </trkpt>
      <trkpt lat="42.05976" lon="9.13326">
        <ele>2332.7763671875</ele>
        <time>2015-06-24T09:11:43Z</time>
      </trkpt>
      <trkpt lat="42.05982" lon="9.13336">
        <ele>2335.1796875</ele>
        <time>2015-06-24T09:11:59Z</time>
      </trkpt>
      <trkpt lat="42.05986" lon="9.13336">
        <ele>2336.1411132812</ele>
        <time>2015-06-24T09:12:12Z</time>
      </trkpt>
      <trkpt lat="42.05986" lon="9.13345">
        <ele>2338.0637207031</ele>
        <time>2015-06-24T09:12:28Z</time>
      </trkpt>
      <trkpt lat="42.05983" lon="9.13352">
        <ele>2340.466796875</ele>
        <time>2015-06-24T09:12:41Z</time>
      </trkpt>
      <trkpt lat="42.05985" lon="9.13365">
        <ele>2341.9089355469</ele>
        <time>2015-06-24T09:12:57Z</time>
      </trkpt>
      <trkpt lat="42.05987" lon="9.13379">
        <ele>2341.9089355469</ele>
        <time>2015-06-24T09:13:12Z</time>
      </trkpt>
      <trkpt lat="42.05985" lon="9.13376">
        <ele>2342.8701171875</ele>
        <time>2015-06-24T09:13:34Z</time>
      </trkpt>
      <trkpt lat="42.05984" lon="9.13376">
        <ele>2342.8701171875</ele>
        <time>2015-06-24T09:14:09Z</time>
      </trkpt>
      <trkpt lat="42.05986" lon="9.13379">
        <ele>2342.3896484375</ele>
        <time>2015-06-24T09:14:38Z</time>
      </trkpt>
      <trkpt lat="42.05985" lon="9.13377">
        <ele>2342.3896484375</ele>
        <time>2015-06-24T09:14:56Z</time>
      </trkpt>
      <trkpt lat="42.05984" lon="9.13377">
        <ele>2343.3508300781</ele>
        <time>2015-06-24T09:15:23Z</time>
      </trkpt>
      <trkpt lat="42.05983" lon="9.13376">
        <ele>2343.3508300781</ele>
        <time>2015-06-24T09:15:53Z</time>
      </trkpt>
      <trkpt lat="42.05985" lon="9.13375">
        <ele>2343.3508300781</ele>
        <time>2015-06-24T09:16:19Z</time>
      </trkpt>
      <trkpt lat="42.05985" lon="9.13375">
        <ele>2343.3508300781</ele>
        <time>2015-06-24T09:16:48Z</time>
      </trkpt>
      <trkpt lat="42.05983" lon="9.13376">
        <ele>2343.3508300781</ele>
        <time>2015-06-24T09:17:15Z</time>
      </trkpt>
      <trkpt lat="42.05985" lon="9.13379">
        <ele>2343.8315429688</ele>
        <time>2015-06-24T09:17:35Z</time>
      </trkpt>
      <trkpt lat="42.05985" lon="9.13379">
        <ele>2343.8315429688</ele>
        <time>2015-06-24T09:18:15Z</time>
      </trkpt>
      <trkpt lat="42.05985" lon="9.13374">
        <ele>2343.8315429688</ele>
        <time>2015-06-24T09:18:27Z</time>
      </trkpt>
      <trkpt lat="42.05982" lon="9.13373">
        <ele>2344.3120117188</ele>
        <time>2015-06-24T09:18:34Z</time>
      </trkpt>
      <trkpt lat="42.05978" lon="9.13374">
        <ele>2345.7541503906</ele>
        <time>2015-06-24T09:18:39Z</time>
      </trkpt>
      <trkpt lat="42.05975" lon="9.13377">
        <ele>2347.6767578125</ele>
        <time>2015-06-24T09:18:51Z</time>
      </trkpt>
      <trkpt lat="42.05975" lon="9.13381">
        <ele>2349.1188964844</ele>
        <time>2015-06-24T09:19:05Z</time>
      </trkpt>
      <trkpt lat="42.05975" lon="9.13382">
        <ele>2349.599609375</ele>
        <time>2015-06-24T09:19:44Z</time>
      </trkpt>
      <trkpt lat="42.05975" lon="9.13383">
        <ele>2350.5607910156</ele>
        <time>2015-06-24T09:20:07Z</time>
      </trkpt>
      <trkpt lat="42.05976" lon="9.13383">
        <ele>2349.1188964844</ele>
        <time>2015-06-24T09:20:14Z</time>
      </trkpt>
      <trkpt lat="42.05974" lon="9.13379">
        <ele>2349.1188964844</ele>
        <time>2015-06-24T09:20:35Z</time>
      </trkpt>
      <trkpt lat="42.05974" lon="9.13375">
        <ele>2347.6767578125</ele>
        <time>2015-06-24T09:20:55Z</time>
      </trkpt>
      <trkpt lat="42.05975" lon="9.1337">
        <ele>2346.7153320312</ele>
        <time>2015-06-24T09:21:06Z</time>
      </trkpt>
      <trkpt lat="42.05981" lon="9.13372">
        <ele>2343.8315429688</ele>
        <time>2015-06-24T09:21:15Z</time>
      </trkpt>
      <trkpt lat="42.05986" lon="9.13379">
        <ele>2343.8315429688</ele>
        <time>2015-06-24T09:21:32Z</time>
      </trkpt>
      <trkpt lat="42.05987" lon="9.13377">
        <ele>2342.8701171875</ele>
        <time>2015-06-24T09:21:44Z</time>
      </trkpt>
      <trkpt lat="42.05989" lon="9.13374">
        <ele>2341.9089355469</ele>
        <time>2015-06-24T09:21:46Z</time>
      </trkpt>
      <trkpt lat="42.05993" lon="9.13372">
        <ele>2342.3896484375</ele>
        <time>2015-06-24T09:21:59Z</time>
      </trkpt>
      <trkpt lat="42.05993" lon="9.13373">
        <ele>2343.3508300781</ele>
        <time>2015-06-24T09:22:02Z</time>
      </trkpt>
      <trkpt lat="42.05987" lon="9.13369">
        <ele>2342.8701171875</ele>
        <time>2015-06-24T09:22:34Z</time>
      </trkpt>
      <trkpt lat="42.05981" lon="9.13369">
        <ele>2341.9089355469</ele>
        <time>2015-06-24T09:22:46Z</time>
      </trkpt>
    </trkseg>
  </trk>
  <trk>
    <name><![CDATA[ACTIVE LOG 008]]></name>
    <trkseg>
      <trkpt lat="42.05982" lon="9.13369">
        <ele>2316.4340820312</ele>
        <time>2015-06-24T09:26:09Z</time>
      </trkpt>
    </trkseg>
  </trk>
  <trk>
    <name><![CDATA[ACTIVE LOG 009]]></name>
    <trkseg>
      <trkpt lat="42.05978" lon="9.13368">
        <ele>2313.5498046875</ele>
        <time>2015-06-24T09:26:10Z</time>
      </trkpt>
      <trkpt lat="42.05981" lon="9.1337">
        <ele>2317.8759765625</ele>
        <time>2015-06-24T09:26:23Z</time>
      </trkpt>
      <trkpt lat="42.05981" lon="9.1337">
        <ele>2321.2404785156</ele>
        <time>2015-06-24T09:26:27Z</time>
      </trkpt>
      <trkpt lat="42.05982" lon="9.1337">
        <ele>2324.6052246094</ele>
        <time>2015-06-24T09:26:31Z</time>
      </trkpt>
      <trkpt lat="42.05982" lon="9.1337">
        <ele>2327.4890136719</ele>
        <time>2015-06-24T09:26:35Z</time>
      </trkpt>
      <trkpt lat="42.05982" lon="9.1337">
        <ele>2330.8537597656</ele>
        <time>2015-06-24T09:26:40Z</time>
      </trkpt>
      <trkpt lat="42.05981" lon="9.13371">
        <ele>2333.7377929688</ele>
        <time>2015-06-24T09:26:46Z</time>
      </trkpt>
      <trkpt lat="42.05981" lon="9.13371">
        <ele>2335.1796875</ele>
        <time>2015-06-24T09:26:49Z</time>
      </trkpt>
      <trkpt lat="42.05981" lon="9.13371">
        <ele>2338.5444335938</ele>
        <time>2015-06-24T09:26:59Z</time>
      </trkpt>
      <trkpt lat="42.05981" lon="9.13371">
        <ele>2339.0249023438</ele>
        <time>2015-06-24T09:27:00Z</time>
      </trkpt>
      <trkpt lat="42.05981" lon="9.13371">
        <ele>2341.9089355469</ele>
        <time>2015-06-24T09:27:12Z</time>
      </trkpt>
      <trkpt lat="42.05981" lon="9.13371">
        <ele>2345.2734375</ele>
        <time>2015-06-24T09:27:34Z</time>
      </trkpt>
      <trkpt lat="42.0598" lon="9.13371">
        <ele>2343.8315429688</ele>
        <time>2015-06-24T09:46:14Z</time>
      </trkpt>
      <trkpt lat="42.0598" lon="9.13369">
        <ele>2344.3120117188</ele>
        <time>2015-06-24T09:46:31Z</time>
      </trkpt>
      <trkpt lat="42.05991" lon="9.13366">
        <ele>2344.3120117188</ele>
        <time>2015-06-24T09:46:45Z</time>
      </trkpt>
      <trkpt lat="42.05988" lon="9.13366">
        <ele>2344.3120117188</ele>
        <time>2015-06-24T09:46:50Z</time>
      </trkpt>
      <trkpt lat="42.05985" lon="9.13356">
        <ele>2343.3508300781</ele>
        <time>2015-06-24T09:47:02Z</time>
      </trkpt>
      <trkpt lat="42.05988" lon="9.13351">
        <ele>2341.4282226562</ele>
        <time>2015-06-24T09:47:16Z</time>
      </trkpt>
      <trkpt lat="42.05988" lon="9.1335">
        <ele>2339.986328125</ele>
        <time>2015-06-24T09:47:18Z</time>
      </trkpt>
      <trkpt lat="42.0599" lon="9.13351">
        <ele>2339.986328125</ele>
        <time>2015-06-24T09:47:32Z</time>
      </trkpt>
      <trkpt lat="42.05991" lon="9.13351">
        <ele>2341.4282226562</ele>
        <time>2015-06-24T09:47:49Z</time>
      </trkpt>
      <trkpt lat="42.05989" lon="9.13345">
        <ele>2340.466796875</ele>
        <time>2015-06-24T09:50:52Z</time>
      </trkpt>
      <trkpt lat="42.0599" lon="9.13348">
        <ele>2340.466796875</ele>
        <time>2015-06-24T09:53:38Z</time>
      </trkpt>
      <trkpt lat="42.05991" lon="9.13348">
        <ele>2342.8701171875</ele>
        <time>2015-06-24T10:04:24Z</time>
      </trkpt>
      <trkpt lat="42.05991" lon="9.13348">
        <ele>2341.9089355469</ele>
        <time>2015-06-24T10:05:10Z</time>
      </trkpt>
      <trkpt lat="42.05991" lon="9.13349">
        <ele>2342.3896484375</ele>
        <time>2015-06-24T10:05:47Z</time>
      </trkpt>
      <trkpt lat="42.05991" lon="9.13348">
        <ele>2341.9089355469</ele>
        <time>2015-06-24T10:06:21Z</time>
      </trkpt>
      <trkpt lat="42.05991" lon="9.13349">
        <ele>2342.8701171875</ele>
        <time>2015-06-24T10:06:59Z</time>
      </trkpt>
      <trkpt lat="42.05992" lon="9.13349">
        <ele>2343.8315429688</ele>
        <time>2015-06-24T10:07:48Z</time>
      </trkpt>
      <trkpt lat="42.05992" lon="9.1335">
        <ele>2343.3508300781</ele>
        <time>2015-06-24T10:08:19Z</time>
      </trkpt>
      <trkpt lat="42.05992" lon="9.13349">
        <ele>2343.3508300781</ele>
        <time>2015-06-24T10:09:10Z</time>
      </trkpt>
      <trkpt lat="42.05992" lon="9.13349">
        <ele>2343.3508300781</ele>
        <time>2015-06-24T10:09:52Z</time>
      </trkpt>
      <trkpt lat="42.05992" lon="9.13349">
        <ele>2342.3896484375</ele>
        <time>2015-06-24T10:10:35Z</time>
      </trkpt>
      <trkpt lat="42.05992" lon="9.13349">
        <ele>2341.9089355469</ele>
        <time>2015-06-24T10:10:59Z</time>
      </trkpt>
      <trkpt lat="42.05992" lon="9.13348">
        <ele>2341.9089355469</ele>
        <time>2015-06-24T10:11:13Z</time>
      </trkpt>
      <trkpt lat="42.05991" lon="9.13349">
        <ele>2341.4282226562</ele>
        <time>2015-06-24T10:12:03Z</time>
      </trkpt>
      <trkpt lat="42.05991" lon="9.13348">
        <ele>2341.9089355469</ele>
        <time>2015-06-24T10:12:30Z</time>
      </trkpt>
      <trkpt lat="42.05991" lon="9.13348">
        <ele>2341.9089355469</ele>
        <time>2015-06-24T10:12:55Z</time>
      </trkpt>
      <trkpt lat="42.05991" lon="9.13349">
        <ele>2342.3896484375</ele>
        <time>2015-06-24T10:13:32Z</time>
      </trkpt>
      <trkpt lat="42.05991" lon="9.13348">
        <ele>2343.3508300781</ele>
        <time>2015-06-24T10:14:00Z</time>
      </trkpt>
      <trkpt lat="42.05992" lon="9.13345">
        <ele>2343.3508300781</ele>
        <time>2015-06-24T10:14:16Z</time>
      </trkpt>
      <trkpt lat="42.05998" lon="9.13327">
        <ele>2341.4282226562</ele>
        <time>2015-06-24T10:14:32Z</time>
      </trkpt>
      <trkpt lat="42.06004" lon="9.13313">
        <ele>2340.9475097656</ele>
        <time>2015-06-24T10:14:47Z</time>
      </trkpt>
      <trkpt lat="42.06007" lon="9.13307">
        <ele>2339.986328125</ele>
        <time>2015-06-24T10:14:57Z</time>
      </trkpt>
      <trkpt lat="42.06013" lon="9.133">
        <ele>2338.0637207031</ele>
        <time>2015-06-24T10:15:08Z</time>
      </trkpt>
      <trkpt lat="42.06015" lon="9.13298">
        <ele>2338.0637207031</ele>
        <time>2015-06-24T10:15:22Z</time>
      </trkpt>
      <trkpt lat="42.06015" lon="9.13287">
        <ele>2334.69921875</ele>
        <time>2015-06-24T10:15:35Z</time>
      </trkpt>
      <trkpt lat="42.06024" lon="9.13279">
        <ele>2331.8149414062</ele>
        <time>2015-06-24T10:15:47Z</time>
      </trkpt>
      <trkpt lat="42.0603" lon="9.1328">
        <ele>2331.8149414062</ele>
        <time>2015-06-24T10:16:03Z</time>
      </trkpt>
      <trkpt lat="42.06039" lon="9.13281">
        <ele>2331.3342285156</ele>
        <time>2015-06-24T10:16:17Z</time>
      </trkpt>
      <trkpt lat="42.06041" lon="9.1327">
        <ele>2327.9697265625</ele>
        <time>2015-06-24T10:16:27Z</time>
      </trkpt>
      <trkpt lat="42.06042" lon="9.13266">
        <ele>2327.0085449219</ele>
        <time>2015-06-24T10:16:31Z</time>
      </trkpt>
      <trkpt lat="42.06045" lon="9.13256">
        <ele>2324.6052246094</ele>
        <time>2015-06-24T10:16:44Z</time>
      </trkpt>
      <trkpt lat="42.06048" lon="9.13242">
        <ele>2322.6826171875</ele>
        <time>2015-06-24T10:17:00Z</time>
      </trkpt>
      <trkpt lat="42.06049" lon="9.1323">
        <ele>2320.279296875</ele>
        <time>2015-06-24T10:17:15Z</time>
      </trkpt>
      <trkpt lat="42.06053" lon="9.13219">
        <ele>2317.3952636719</ele>
        <time>2015-06-24T10:17:30Z</time>
      </trkpt>
      <trkpt lat="42.06055" lon="9.13214">
        <ele>2314.9919433594</ele>
        <time>2015-06-24T10:17:36Z</time>
      </trkpt>
      <trkpt lat="42.06062" lon="9.132">
        <ele>2313.0693359375</ele>
        <time>2015-06-24T10:17:53Z</time>
      </trkpt>
      <trkpt lat="42.06064" lon="9.13191">
        <ele>2311.6274414062</ele>
        <time>2015-06-24T10:18:08Z</time>
      </trkpt>
      <trkpt lat="42.06069" lon="9.13177">
        <ele>2310.666015625</ele>
        <time>2015-06-24T10:18:24Z</time>
      </trkpt>
      <trkpt lat="42.06072" lon="9.13172">
        <ele>2309.2241210938</ele>
        <time>2015-06-24T10:18:30Z</time>
      </trkpt>
      <trkpt lat="42.06074" lon="9.13165">
        <ele>2308.7434082031</ele>
        <time>2015-06-24T10:18:36Z</time>
      </trkpt>
      <trkpt lat="42.06081" lon="9.13152">
        <ele>2306.3400878906</ele>
        <time>2015-06-24T10:18:52Z</time>
      </trkpt>
      <trkpt lat="42.06083" lon="9.1314">
        <ele>2303.4562988281</ele>
        <time>2015-06-24T10:19:04Z</time>
      </trkpt>
      <trkpt lat="42.0609" lon="9.13127">
        <ele>2301.5336914062</ele>
        <time>2015-06-24T10:19:20Z</time>
      </trkpt>
      <trkpt lat="42.06094" lon="9.13118">
        <ele>2299.1301269531</ele>
        <time>2015-06-24T10:19:33Z</time>
      </trkpt>
      <trkpt lat="42.06097" lon="9.13114">
        <ele>2297.6882324219</ele>
        <time>2015-06-24T10:19:45Z</time>
      </trkpt>
      <trkpt lat="42.06099" lon="9.1311">
        <ele>2296.7268066406</ele>
        <time>2015-06-24T10:19:58Z</time>
      </trkpt>
      <trkpt lat="42.0611" lon="9.13112">
        <ele>2294.3234863281</ele>
        <time>2015-06-24T10:20:14Z</time>
      </trkpt>
      <trkpt lat="42.06115" lon="9.13113">
        <ele>2291.9204101562</ele>
        <time>2015-06-24T10:20:25Z</time>
      </trkpt>
      <trkpt lat="42.06115" lon="9.13104">
        <ele>2290.958984375</ele>
        <time>2015-06-24T10:20:40Z</time>
      </trkpt>
      <trkpt lat="42.06113" lon="9.131">
        <ele>2289.0363769531</ele>
        <time>2015-06-24T10:20:45Z</time>
      </trkpt>
      <trkpt lat="42.0612" lon="9.13097">
        <ele>2288.0751953125</ele>
        <time>2015-06-24T10:20:58Z</time>
      </trkpt>
      <trkpt lat="42.0613" lon="9.131">
        <ele>2286.1525878906</ele>
        <time>2015-06-24T10:21:11Z</time>
      </trkpt>
      <trkpt lat="42.06137" lon="9.13096">
        <ele>2284.7106933594</ele>
        <time>2015-06-24T10:21:26Z</time>
      </trkpt>
      <trkpt lat="42.06139" lon="9.13084">
        <ele>2281.8264160156</ele>
        <time>2015-06-24T10:21:41Z</time>
      </trkpt>
      <trkpt lat="42.06143" lon="9.13074">
        <ele>2278.9423828125</ele>
        <time>2015-06-24T10:21:55Z</time>
      </trkpt>
      <trkpt lat="42.06152" lon="9.13077">
        <ele>2278.4619140625</ele>
        <time>2015-06-24T10:22:13Z</time>
      </trkpt>
      <trkpt lat="42.06166" lon="9.13078">
        <ele>2275.5778808594</ele>
        <time>2015-06-24T10:22:30Z</time>
      </trkpt>
      <trkpt lat="42.06172" lon="9.13068">
        <ele>2273.1748046875</ele>
        <time>2015-06-24T10:22:43Z</time>
      </trkpt>
      <trkpt lat="42.06178" lon="9.13057">
        <ele>2272.2133789062</ele>
        <time>2015-06-24T10:22:57Z</time>
      </trkpt>
      <trkpt lat="42.06183" lon="9.13051">
        <ele>2269.8100585938</ele>
        <time>2015-06-24T10:23:10Z</time>
      </trkpt>
      <trkpt lat="42.0619" lon="9.13043">
        <ele>2269.3295898438</ele>
        <time>2015-06-24T10:23:24Z</time>
      </trkpt>
      <trkpt lat="42.062" lon="9.13041">
        <ele>2266.4453125</ele>
        <time>2015-06-24T10:23:37Z</time>
      </trkpt>
      <trkpt lat="42.06203" lon="9.13038">
        <ele>2266.4453125</ele>
        <time>2015-06-24T10:23:41Z</time>
      </trkpt>
      <trkpt lat="42.06211" lon="9.13034">
        <ele>2264.0419921875</ele>
        <time>2015-06-24T10:23:49Z</time>
      </trkpt>
      <trkpt lat="42.06228" lon="9.13033">
        <ele>2263.5612792969</ele>
        <time>2015-06-24T10:24:07Z</time>
      </trkpt>
      <trkpt lat="42.06238" lon="9.1303">
        <ele>2263.0808105469</ele>
        <time>2015-06-24T10:24:18Z</time>
      </trkpt>
      <trkpt lat="42.06248" lon="9.13015">
        <ele>2261.158203125</ele>
        <time>2015-06-24T10:24:34Z</time>
      </trkpt>
      <trkpt lat="42.06264" lon="9.13005">
        <ele>2258.2741699219</ele>
        <time>2015-06-24T10:24:52Z</time>
      </trkpt>
      <trkpt lat="42.06279" lon="9.12996">
        <ele>2258.2741699219</ele>
        <time>2015-06-24T10:25:08Z</time>
      </trkpt>
      <trkpt lat="42.06287" lon="9.1298">
        <ele>2255.8708496094</ele>
        <time>2015-06-24T10:25:24Z</time>
      </trkpt>
      <trkpt lat="42.06309" lon="9.12969">
        <ele>2254.9096679688</ele>
        <time>2015-06-24T10:25:44Z</time>
      </trkpt>
      <trkpt lat="42.06335" lon="9.12961">
        <ele>2254.9096679688</ele>
        <time>2015-06-24T10:26:06Z</time>
      </trkpt>
      <trkpt lat="42.06349" lon="9.12958">
        <ele>2253.9484863281</ele>
        <time>2015-06-24T10:26:18Z</time>
      </trkpt>
      <trkpt lat="42.06354" lon="9.12957">
        <ele>2254.4289550781</ele>
        <time>2015-06-24T10:26:22Z</time>
      </trkpt>
      <trkpt lat="42.0638" lon="9.12956">
        <ele>2254.9096679688</ele>
        <time>2015-06-24T10:26:45Z</time>
      </trkpt>
      <trkpt lat="42.06398" lon="9.1296">
        <ele>2255.8708496094</ele>
        <time>2015-06-24T10:27:01Z</time>
      </trkpt>
      <trkpt lat="42.06405" lon="9.12959">
        <ele>2257.3129882812</ele>
        <time>2015-06-24T10:27:07Z</time>
      </trkpt>
      <trkpt lat="42.06418" lon="9.12955">
        <ele>2257.3129882812</ele>
        <time>2015-06-24T10:27:17Z</time>
      </trkpt>
      <trkpt lat="42.06426" lon="9.12947">
        <ele>2257.7937011719</ele>
        <time>2015-06-24T10:27:26Z</time>
      </trkpt>
      <trkpt lat="42.0645" lon="9.12935">
        <ele>2256.8322753906</ele>
        <time>2015-06-24T10:27:47Z</time>
      </trkpt>
      <trkpt lat="42.06472" lon="9.12924">
        <ele>2255.3903808594</ele>
        <time>2015-06-24T10:28:07Z</time>
      </trkpt>
      <trkpt lat="42.06495" lon="9.12908">
        <ele>2254.9096679688</ele>
        <time>2015-06-24T10:28:28Z</time>
      </trkpt>
      <trkpt lat="42.06509" lon="9.12903">
        <ele>2254.4289550781</ele>
        <time>2015-06-24T10:28:41Z</time>
      </trkpt>
      <trkpt lat="42.06526" lon="9.12893">
        <ele>2254.4289550781</ele>
        <time>2015-06-24T10:28:59Z</time>
      </trkpt>
      <trkpt lat="42.06547" lon="9.1289">
        <ele>2252.9870605469</ele>
        <time>2015-06-24T10:29:18Z</time>
      </trkpt>
      <trkpt lat="42.06565" lon="9.1288">
        <ele>2252.0256347656</ele>
        <time>2015-06-24T10:29:36Z</time>
      </trkpt>
      <trkpt lat="42.06568" lon="9.12876">
        <ele>2251.544921875</ele>
        <time>2015-06-24T10:29:41Z</time>
      </trkpt>
      <trkpt lat="42.06573" lon="9.12874">
        <ele>2250.5834960938</ele>
        <time>2015-06-24T10:29:46Z</time>
      </trkpt>
      <trkpt lat="42.06588" lon="9.12864">
        <ele>2250.1030273438</ele>
        <time>2015-06-24T10:30:01Z</time>
      </trkpt>
      <trkpt lat="42.06598" lon="9.12863">
        <ele>2250.1030273438</ele>
        <time>2015-06-24T10:30:10Z</time>
      </trkpt>
      <trkpt lat="42.06603" lon="9.12859">
        <ele>2250.1030273438</ele>
        <time>2015-06-24T10:30:16Z</time>
      </trkpt>
      <trkpt lat="42.06604" lon="9.12856">
        <ele>2249.6223144531</ele>
        <time>2015-06-24T10:30:19Z</time>
      </trkpt>
      <trkpt lat="42.06613" lon="9.12855">
        <ele>2247.2189941406</ele>
        <time>2015-06-24T10:30:35Z</time>
      </trkpt>
      <trkpt lat="42.06613" lon="9.12853">
        <ele>2247.6997070312</ele>
        <time>2015-06-24T10:31:04Z</time>
      </trkpt>
      <trkpt lat="42.06619" lon="9.12846">
        <ele>2248.6608886719</ele>
        <time>2015-06-24T10:31:30Z</time>
      </trkpt>
      <trkpt lat="42.06624" lon="9.12845">
        <ele>2248.6608886719</ele>
        <time>2015-06-24T10:31:36Z</time>
      </trkpt>
      <trkpt lat="42.06639" lon="9.12851">
        <ele>2245.7770996094</ele>
        <time>2015-06-24T10:31:53Z</time>
      </trkpt>
      <trkpt lat="42.06639" lon="9.12857">
        <ele>2243.8544921875</ele>
        <time>2015-06-24T10:32:05Z</time>
      </trkpt>
      <trkpt lat="42.06634" lon="9.12866">
        <ele>2243.3737792969</ele>
        <time>2015-06-24T10:32:18Z</time>
      </trkpt>
      <trkpt lat="42.06634" lon="9.12875">
        <ele>2241.9318847656</ele>
        <time>2015-06-24T10:32:32Z</time>
      </trkpt>
      <trkpt lat="42.06635" lon="9.12877">
        <ele>2240.4897460938</ele>
        <time>2015-06-24T10:32:37Z</time>
      </trkpt>
      <trkpt lat="42.06638" lon="9.1289">
        <ele>2237.6059570312</ele>
        <time>2015-06-24T10:32:54Z</time>
      </trkpt>
      <trkpt lat="42.06643" lon="9.12886">
        <ele>2235.6831054688</ele>
        <time>2015-06-24T10:33:09Z</time>
      </trkpt>
      <trkpt lat="42.06643" lon="9.12893">
        <ele>2233.2797851562</ele>
        <time>2015-06-24T10:33:24Z</time>
      </trkpt>
      <trkpt lat="42.06643" lon="9.12898">
        <ele>2231.3571777344</ele>
        <time>2015-06-24T10:33:33Z</time>
      </trkpt>
      <trkpt lat="42.06639" lon="9.12905">
        <ele>2230.3959960938</ele>
        <time>2015-06-24T10:33:38Z</time>
      </trkpt>
      <trkpt lat="42.06639" lon="9.12908">
        <ele>2229.9152832031</ele>
        <time>2015-06-24T10:33:42Z</time>
      </trkpt>
      <trkpt lat="42.06647" lon="9.12907">
        <ele>2227.5119628906</ele>
        <time>2015-06-24T10:33:55Z</time>
      </trkpt>
      <trkpt lat="42.06649" lon="9.12913">
        <ele>2225.5893554688</ele>
        <time>2015-06-24T10:34:07Z</time>
      </trkpt>
      <trkpt lat="42.06649" lon="9.12914">
        <ele>2224.1474609375</ele>
        <time>2015-06-24T10:34:10Z</time>
      </trkpt>
      <trkpt lat="42.06658" lon="9.12912">
        <ele>2222.7055664062</ele>
        <time>2015-06-24T10:34:23Z</time>
      </trkpt>
      <trkpt lat="42.06664" lon="9.12911">
        <ele>2222.2248535156</ele>
        <time>2015-06-24T10:34:30Z</time>
      </trkpt>
      <trkpt lat="42.06668" lon="9.12913">
        <ele>2220.7829589844</ele>
        <time>2015-06-24T10:34:34Z</time>
      </trkpt>
      <trkpt lat="42.06675" lon="9.12913">
        <ele>2219.3408203125</ele>
        <time>2015-06-24T10:34:49Z</time>
      </trkpt>
      <trkpt lat="42.06676" lon="9.12912">
        <ele>2218.8601074219</ele>
        <time>2015-06-24T10:34:50Z</time>
      </trkpt>
      <trkpt lat="42.06678" lon="9.12913">
        <ele>2217.8986816406</ele>
        <time>2015-06-24T10:34:52Z</time>
      </trkpt>
      <trkpt lat="42.06682" lon="9.12912">
        <ele>2215.0148925781</ele>
        <time>2015-06-24T10:35:04Z</time>
      </trkpt>
      <trkpt lat="42.06685" lon="9.12912">
        <ele>2214.0534667969</ele>
        <time>2015-06-24T10:35:15Z</time>
      </trkpt>
      <trkpt lat="42.0669" lon="9.12918">
        <ele>2211.1696777344</ele>
        <time>2015-06-24T10:35:28Z</time>
      </trkpt>
      <trkpt lat="42.06693" lon="9.12914">
        <ele>2209.7275390625</ele>
        <time>2015-06-24T10:35:40Z</time>
      </trkpt>
      <trkpt lat="42.06697" lon="9.1292">
        <ele>2208.2856445312</ele>
        <time>2015-06-24T10:35:55Z</time>
      </trkpt>
      <trkpt lat="42.06696" lon="9.12929">
        <ele>2205.4018554688</ele>
        <time>2015-06-24T10:36:07Z</time>
      </trkpt>
      <trkpt lat="42.06701" lon="9.12929">
        <ele>2204.9211425781</ele>
        <time>2015-06-24T10:36:22Z</time>
      </trkpt>
      <trkpt lat="42.06706" lon="9.12934">
        <ele>2201.5563964844</ele>
        <time>2015-06-24T10:36:35Z</time>
      </trkpt>
      <trkpt lat="42.06709" lon="9.12935">
        <ele>2201.0756835938</ele>
        <time>2015-06-24T10:36:39Z</time>
      </trkpt>
      <trkpt lat="42.06715" lon="9.12937">
        <ele>2199.1530761719</ele>
        <time>2015-06-24T10:36:53Z</time>
      </trkpt>
      <trkpt lat="42.06718" lon="9.12941">
        <ele>2197.7111816406</ele>
        <time>2015-06-24T10:37:00Z</time>
      </trkpt>
      <trkpt lat="42.06727" lon="9.12949">
        <ele>2194.8271484375</ele>
        <time>2015-06-24T10:37:15Z</time>
      </trkpt>
      <trkpt lat="42.06731" lon="9.12954">
        <ele>2193.8659667969</ele>
        <time>2015-06-24T10:37:29Z</time>
      </trkpt>
      <trkpt lat="42.06732" lon="9.12955">
        <ele>2192.9045410156</ele>
        <time>2015-06-24T10:37:31Z</time>
      </trkpt>
      <trkpt lat="42.06735" lon="9.12959">
        <ele>2191.943359375</ele>
        <time>2015-06-24T10:37:46Z</time>
      </trkpt>
      <trkpt lat="42.0674" lon="9.12976">
        <ele>2189.5400390625</ele>
        <time>2015-06-24T10:38:04Z</time>
      </trkpt>
      <trkpt lat="42.06742" lon="9.12978">
        <ele>2187.6171875</ele>
        <time>2015-06-24T10:38:08Z</time>
      </trkpt>
      <trkpt lat="42.06746" lon="9.12979">
        <ele>2185.6945800781</ele>
        <time>2015-06-24T10:38:17Z</time>
      </trkpt>
      <trkpt lat="42.06753" lon="9.1298">
        <ele>2184.7333984375</ele>
        <time>2015-06-24T10:38:30Z</time>
      </trkpt>
      <trkpt lat="42.06755" lon="9.12987">
        <ele>2181.3686523438</ele>
        <time>2015-06-24T10:38:43Z</time>
      </trkpt>
      <trkpt lat="42.06762" lon="9.12989">
        <ele>2180.4074707031</ele>
        <time>2015-06-24T10:38:57Z</time>
      </trkpt>
      <trkpt lat="42.0676" lon="9.12992">
        <ele>2180.4074707031</ele>
        <time>2015-06-24T10:39:01Z</time>
      </trkpt>
      <trkpt lat="42.06757" lon="9.13003">
        <ele>2177.04296875</ele>
        <time>2015-06-24T10:39:15Z</time>
      </trkpt>
      <trkpt lat="42.06759" lon="9.13011">
        <ele>2174.6396484375</ele>
        <time>2015-06-24T10:39:28Z</time>
      </trkpt>
      <trkpt lat="42.0676" lon="9.13015">
        <ele>2171.2746582031</ele>
        <time>2015-06-24T10:39:38Z</time>
      </trkpt>
      <trkpt lat="42.0676" lon="9.13016">
        <ele>2171.2746582031</ele>
        <time>2015-06-24T10:39:39Z</time>
      </trkpt>
      <trkpt lat="42.06762" lon="9.13023">
        <ele>2169.8327636719</ele>
        <time>2015-06-24T10:39:53Z</time>
      </trkpt>
      <trkpt lat="42.0677" lon="9.1304">
        <ele>2166.9489746094</ele>
        <time>2015-06-24T10:40:10Z</time>
      </trkpt>
      <trkpt lat="42.06767" lon="9.13044">
        <ele>2166.4682617188</ele>
        <time>2015-06-24T10:40:15Z</time>
      </trkpt>
      <trkpt lat="42.06772" lon="9.13063">
        <ele>2163.5842285156</ele>
        <time>2015-06-24T10:40:33Z</time>
      </trkpt>
      <trkpt lat="42.06781" lon="9.13072">
        <ele>2162.1423339844</ele>
        <time>2015-06-24T10:40:50Z</time>
      </trkpt>
      <trkpt lat="42.06786" lon="9.13079">
        <ele>2158.2971191406</ele>
        <time>2015-06-24T10:41:03Z</time>
      </trkpt>
      <trkpt lat="42.06788" lon="9.13085">
        <ele>2157.3359375</ele>
        <time>2015-06-24T10:41:16Z</time>
      </trkpt>
      <trkpt lat="42.06794" lon="9.13085">
        <ele>2156.3745117188</ele>
        <time>2015-06-24T10:41:26Z</time>
      </trkpt>
      <trkpt lat="42.06795" lon="9.13093">
        <ele>2153.009765625</ele>
        <time>2015-06-24T10:41:37Z</time>
      </trkpt>
      <trkpt lat="42.06799" lon="9.13107">
        <ele>2151.5678710938</ele>
        <time>2015-06-24T10:41:55Z</time>
      </trkpt>
      <trkpt lat="42.068" lon="9.13113">
        <ele>2149.6452636719</ele>
        <time>2015-06-24T10:42:00Z</time>
      </trkpt>
      <trkpt lat="42.06797" lon="9.13125">
        <ele>2146.2807617188</ele>
        <time>2015-06-24T10:42:14Z</time>
      </trkpt>
      <trkpt lat="42.06797" lon="9.13127">
        <ele>2146.7612304688</ele>
        <time>2015-06-24T10:42:16Z</time>
      </trkpt>
      <trkpt lat="42.06799" lon="9.13135">
        <ele>2145.3193359375</ele>
        <time>2015-06-24T10:42:23Z</time>
      </trkpt>
      <trkpt lat="42.06806" lon="9.13138">
        <ele>2143.8774414062</ele>
        <time>2015-06-24T10:42:37Z</time>
      </trkpt>
      <trkpt lat="42.06803" lon="9.13137">
        <ele>2144.3579101562</ele>
        <time>2015-06-24T10:42:52Z</time>
      </trkpt>
      <trkpt lat="42.06796" lon="9.13136">
        <ele>2145.3193359375</ele>
        <time>2015-06-24T10:42:59Z</time>
      </trkpt>
      <trkpt lat="42.06788" lon="9.13137">
        <ele>2142.916015625</ele>
        <time>2015-06-24T10:43:13Z</time>
      </trkpt>
      <trkpt lat="42.06781" lon="9.13131">
        <ele>2141.9548339844</ele>
        <time>2015-06-24T10:43:27Z</time>
      </trkpt>
      <trkpt lat="42.06779" lon="9.13137">
        <ele>2139.5512695312</ele>
        <time>2015-06-24T10:43:38Z</time>
      </trkpt>
      <trkpt lat="42.06773" lon="9.13139">
        <ele>2136.1867675781</ele>
        <time>2015-06-24T10:43:54Z</time>
      </trkpt>
      <trkpt lat="42.06772" lon="9.13147">
        <ele>2132.8220214844</ele>
        <time>2015-06-24T10:44:06Z</time>
      </trkpt>
      <trkpt lat="42.06771" lon="9.13154">
        <ele>2129.9382324219</ele>
        <time>2015-06-24T10:44:19Z</time>
      </trkpt>
      <trkpt lat="42.06769" lon="9.13157">
        <ele>2128.9768066406</ele>
        <time>2015-06-24T10:44:24Z</time>
      </trkpt>
      <trkpt lat="42.06767" lon="9.1317">
        <ele>2127.5349121094</ele>
        <time>2015-06-24T10:44:40Z</time>
      </trkpt>
      <trkpt lat="42.06763" lon="9.13178">
        <ele>2124.1704101562</ele>
        <time>2015-06-24T10:44:54Z</time>
      </trkpt>
      <trkpt lat="42.06757" lon="9.13186">
        <ele>2122.7282714844</ele>
        <time>2015-06-24T10:45:09Z</time>
      </trkpt>
      <trkpt lat="42.06754" lon="9.13196">
        <ele>2120.3249511719</ele>
        <time>2015-06-24T10:45:22Z</time>
      </trkpt>
      <trkpt lat="42.06748" lon="9.13209">
        <ele>2118.40234375</ele>
        <time>2015-06-24T10:45:37Z</time>
      </trkpt>
      <trkpt lat="42.06745" lon="9.13219">
        <ele>2117.4409179688</ele>
        <time>2015-06-24T10:45:50Z</time>
      </trkpt>
      <trkpt lat="42.06741" lon="9.13235">
        <ele>2116.4797363281</ele>
        <time>2015-06-24T10:46:04Z</time>
      </trkpt>
      <trkpt lat="42.06737" lon="9.13265">
        <ele>2115.5185546875</ele>
        <time>2015-06-24T10:46:25Z</time>
      </trkpt>
      <trkpt lat="42.06736" lon="9.13285">
        <ele>2115.0378417969</ele>
        <time>2015-06-24T10:46:40Z</time>
      </trkpt>
      <trkpt lat="42.06736" lon="9.13289">
        <ele>2115.0378417969</ele>
        <time>2015-06-24T10:46:55Z</time>
      </trkpt>
      <trkpt lat="42.06737" lon="9.13298">
        <ele>2114.5571289062</ele>
        <time>2015-06-24T10:47:08Z</time>
      </trkpt>
      <trkpt lat="42.06735" lon="9.13304">
        <ele>2113.115234375</ele>
        <time>2015-06-24T10:47:26Z</time>
      </trkpt>
      <trkpt lat="42.06735" lon="9.13309">
        <ele>2112.1538085938</ele>
        <time>2015-06-24T10:47:40Z</time>
      </trkpt>
      <trkpt lat="42.06733" lon="9.13312">
        <ele>2110.7119140625</ele>
        <time>2015-06-24T10:47:56Z</time>
      </trkpt>
      <trkpt lat="42.06724" lon="9.13318">
        <ele>2108.7893066406</ele>
        <time>2015-06-24T10:48:13Z</time>
      </trkpt>
      <trkpt lat="42.06721" lon="9.13326">
        <ele>2107.8278808594</ele>
        <time>2015-06-24T10:48:28Z</time>
      </trkpt>
      <trkpt lat="42.0672" lon="9.13334">
        <ele>2106.3857421875</ele>
        <time>2015-06-24T10:48:42Z</time>
      </trkpt>
      <trkpt lat="42.0672" lon="9.13335">
        <ele>2106.3857421875</ele>
        <time>2015-06-24T10:49:05Z</time>
      </trkpt>
      <trkpt lat="42.06722" lon="9.13345">
        <ele>2103.9826660156</ele>
        <time>2015-06-24T10:49:19Z</time>
      </trkpt>
      <trkpt lat="42.06722" lon="9.13347">
        <ele>2103.0212402344</ele>
        <time>2015-06-24T10:49:21Z</time>
      </trkpt>
      <trkpt lat="42.0672" lon="9.13354">
        <ele>2102.0598144531</ele>
        <time>2015-06-24T10:49:35Z</time>
      </trkpt>
      <trkpt lat="42.06719" lon="9.13362">
        <ele>2101.5793457031</ele>
        <time>2015-06-24T10:49:50Z</time>
      </trkpt>
      <trkpt lat="42.06712" lon="9.13366">
        <ele>2100.6179199219</ele>
        <time>2015-06-24T10:50:04Z</time>
      </trkpt>
      <trkpt lat="42.06711" lon="9.13371">
        <ele>2100.1374511719</ele>
        <time>2015-06-24T10:50:27Z</time>
      </trkpt>
      <trkpt lat="42.0671" lon="9.13376">
        <ele>2099.1760253906</ele>
        <time>2015-06-24T10:50:39Z</time>
      </trkpt>
      <trkpt lat="42.06708" lon="9.13366">
        <ele>2098.6953125</ele>
        <time>2015-06-24T10:51:09Z</time>
      </trkpt>
      <trkpt lat="42.06706" lon="9.13363">
        <ele>2098.2145996094</ele>
        <time>2015-06-24T10:51:22Z</time>
      </trkpt>
      <trkpt lat="42.06707" lon="9.13367">
        <ele>2098.2145996094</ele>
        <time>2015-06-24T10:51:42Z</time>
      </trkpt>
      <trkpt lat="42.06705" lon="9.13368">
        <ele>2098.2145996094</ele>
        <time>2015-06-24T10:54:24Z</time>
      </trkpt>
      <trkpt lat="42.06705" lon="9.13367">
        <ele>2097.7341308594</ele>
        <time>2015-06-24T10:55:29Z</time>
      </trkpt>
      <trkpt lat="42.06705" lon="9.13365">
        <ele>2098.6953125</ele>
        <time>2015-06-24T10:56:04Z</time>
      </trkpt>
      <trkpt lat="42.06704" lon="9.13367">
        <ele>2098.2145996094</ele>
        <time>2015-06-24T10:56:22Z</time>
      </trkpt>
      <trkpt lat="42.06709" lon="9.13372">
        <ele>2098.6953125</ele>
        <time>2015-06-24T10:56:36Z</time>
      </trkpt>
      <trkpt lat="42.06713" lon="9.13376">
        <ele>2098.6953125</ele>
        <time>2015-06-24T10:56:44Z</time>
      </trkpt>
      <trkpt lat="42.06719" lon="9.13394">
        <ele>2098.2145996094</ele>
        <time>2015-06-24T10:56:59Z</time>
      </trkpt>
      <trkpt lat="42.06719" lon="9.13408">
        <ele>2098.6953125</ele>
        <time>2015-06-24T10:57:08Z</time>
      </trkpt>
      <trkpt lat="42.06722" lon="9.13428">
        <ele>2099.1760253906</ele>
        <time>2015-06-24T10:57:26Z</time>
      </trkpt>
      <trkpt lat="42.06723" lon="9.13436">
        <ele>2101.0986328125</ele>
        <time>2015-06-24T10:57:36Z</time>
      </trkpt>
      <trkpt lat="42.06728" lon="9.13444">
        <ele>2103.0212402344</ele>
        <time>2015-06-24T10:57:51Z</time>
      </trkpt>
      <trkpt lat="42.06734" lon="9.13452">
        <ele>2103.9826660156</ele>
        <time>2015-06-24T10:58:06Z</time>
      </trkpt>
      <trkpt lat="42.06741" lon="9.1346">
        <ele>2104.4631347656</ele>
        <time>2015-06-24T10:58:17Z</time>
      </trkpt>
      <trkpt lat="42.06747" lon="9.13465">
        <ele>2104.9438476562</ele>
        <time>2015-06-24T10:58:24Z</time>
      </trkpt>
      <trkpt lat="42.06757" lon="9.13469">
        <ele>2105.4245605469</ele>
        <time>2015-06-24T10:58:37Z</time>
      </trkpt>
      <trkpt lat="42.06759" lon="9.13464">
        <ele>2105.9050292969</ele>
        <time>2015-06-24T10:58:44Z</time>
      </trkpt>
      <trkpt lat="42.06763" lon="9.13448">
        <ele>2106.8664550781</ele>
        <time>2015-06-24T10:59:00Z</time>
      </trkpt>
      <trkpt lat="42.06765" lon="9.13438">
        <ele>2106.3857421875</ele>
        <time>2015-06-24T10:59:16Z</time>
      </trkpt>
      <trkpt lat="42.06771" lon="9.13432">
        <ele>2104.9438476562</ele>
        <time>2015-06-24T10:59:27Z</time>
      </trkpt>
      <trkpt lat="42.06772" lon="9.13431">
        <ele>2105.4245605469</ele>
        <time>2015-06-24T10:59:30Z</time>
      </trkpt>
      <trkpt lat="42.06779" lon="9.1343">
        <ele>2104.9438476562</ele>
        <time>2015-06-24T10:59:43Z</time>
      </trkpt>
      <trkpt lat="42.06783" lon="9.13431">
        <ele>2104.4631347656</ele>
        <time>2015-06-24T10:59:48Z</time>
      </trkpt>
      <trkpt lat="42.06793" lon="9.13436">
        <ele>2103.9826660156</ele>
        <time>2015-06-24T11:00:04Z</time>
      </trkpt>
      <trkpt lat="42.06801" lon="9.13444">
        <ele>2103.0212402344</ele>
        <time>2015-06-24T11:00:17Z</time>
      </trkpt>
      <trkpt lat="42.06805" lon="9.13451">
        <ele>2100.6179199219</ele>
        <time>2015-06-24T11:00:27Z</time>
      </trkpt>
      <trkpt lat="42.06807" lon="9.1346">
        <ele>2097.7341308594</ele>
        <time>2015-06-24T11:00:40Z</time>
      </trkpt>
      <trkpt lat="42.06809" lon="9.13464">
        <ele>2096.7727050781</ele>
        <time>2015-06-24T11:00:45Z</time>
      </trkpt>
      <trkpt lat="42.06813" lon="9.13468">
        <ele>2094.8500976562</ele>
        <time>2015-06-24T11:00:58Z</time>
      </trkpt>
      <trkpt lat="42.06815" lon="9.13475">
        <ele>2091.9660644531</ele>
        <time>2015-06-24T11:01:12Z</time>
      </trkpt>
      <trkpt lat="42.06822" lon="9.13475">
        <ele>2088.6015625</ele>
        <time>2015-06-24T11:01:28Z</time>
      </trkpt>
      <trkpt lat="42.06824" lon="9.13479">
        <ele>2085.2368164062</ele>
        <time>2015-06-24T11:01:36Z</time>
      </trkpt>
      <trkpt lat="42.06829" lon="9.13484">
        <ele>2083.794921875</ele>
        <time>2015-06-24T11:01:49Z</time>
      </trkpt>
      <trkpt lat="42.06831" lon="9.13489">
        <ele>2080.9111328125</ele>
        <time>2015-06-24T11:01:58Z</time>
      </trkpt>
      <trkpt lat="42.06833" lon="9.13493">
        <ele>2077.5463867188</ele>
        <time>2015-06-24T11:02:08Z</time>
      </trkpt>
      <trkpt lat="42.06835" lon="9.13497">
        <ele>2076.5852050781</ele>
        <time>2015-06-24T11:02:24Z</time>
      </trkpt>
      <trkpt lat="42.0684" lon="9.13494">
        <ele>2073.2204589844</ele>
        <time>2015-06-24T11:02:46Z</time>
      </trkpt>
      <trkpt lat="42.06845" lon="9.13494">
        <ele>2071.2976074219</ele>
        <time>2015-06-24T11:03:06Z</time>
      </trkpt>
      <trkpt lat="42.0685" lon="9.13494">
        <ele>2068.4138183594</ele>
        <time>2015-06-24T11:03:21Z</time>
      </trkpt>
      <trkpt lat="42.06853" lon="9.13495">
        <ele>2067.4523925781</ele>
        <time>2015-06-24T11:03:33Z</time>
      </trkpt>
      <trkpt lat="42.06855" lon="9.13498">
        <ele>2063.6071777344</ele>
        <time>2015-06-24T11:03:41Z</time>
      </trkpt>
      <trkpt lat="42.06859" lon="9.13497">
        <ele>2062.1652832031</ele>
        <time>2015-06-24T11:03:56Z</time>
      </trkpt>
      <trkpt lat="42.06867" lon="9.13493">
        <ele>2060.2426757812</ele>
        <time>2015-06-24T11:04:10Z</time>
      </trkpt>
      <trkpt lat="42.06871" lon="9.13501">
        <ele>2059.28125</ele>
        <time>2015-06-24T11:04:26Z</time>
      </trkpt>
      <trkpt lat="42.06872" lon="9.13509">
        <ele>2058.8005371094</ele>
        <time>2015-06-24T11:04:39Z</time>
      </trkpt>
      <trkpt lat="42.06878" lon="9.13513">
        <ele>2054.9553222656</ele>
        <time>2015-06-24T11:04:51Z</time>
      </trkpt>
      <trkpt lat="42.06882" lon="9.13513">
        <ele>2053.5134277344</ele>
        <time>2015-06-24T11:05:05Z</time>
      </trkpt>
      <trkpt lat="42.06885" lon="9.13511">
        <ele>2053.994140625</ele>
        <time>2015-06-24T11:05:09Z</time>
      </trkpt>
      <trkpt lat="42.06895" lon="9.1351">
        <ele>2053.994140625</ele>
        <time>2015-06-24T11:05:20Z</time>
      </trkpt>
      <trkpt lat="42.06914" lon="9.13529">
        <ele>2050.6293945312</ele>
        <time>2015-06-24T11:05:40Z</time>
      </trkpt>
      <trkpt lat="42.06919" lon="9.1354">
        <ele>2048.7067871094</ele>
        <time>2015-06-24T11:05:49Z</time>
      </trkpt>
      <trkpt lat="42.06927" lon="9.13565">
        <ele>2046.3037109375</ele>
        <time>2015-06-24T11:06:07Z</time>
      </trkpt>
      <trkpt lat="42.06937" lon="9.13584">
        <ele>2042.9387207031</ele>
        <time>2015-06-24T11:06:23Z</time>
      </trkpt>
      <trkpt lat="42.06942" lon="9.13593">
        <ele>2041.9775390625</ele>
        <time>2015-06-24T11:06:34Z</time>
      </trkpt>
      <trkpt lat="42.06943" lon="9.13599">
        <ele>2041.4968261719</ele>
        <time>2015-06-24T11:06:38Z</time>
      </trkpt>
      <trkpt lat="42.06945" lon="9.13622">
        <ele>2038.1323242188</ele>
        <time>2015-06-24T11:06:55Z</time>
      </trkpt>
      <trkpt lat="42.06946" lon="9.13625">
        <ele>2038.1323242188</ele>
        <time>2015-06-24T11:06:59Z</time>
      </trkpt>
      <trkpt lat="42.06954" lon="9.13635">
        <ele>2036.6901855469</ele>
        <time>2015-06-24T11:07:17Z</time>
      </trkpt>
      <trkpt lat="42.06956" lon="9.13636">
        <ele>2035.7290039062</ele>
        <time>2015-06-24T11:07:22Z</time>
      </trkpt>
      <trkpt lat="42.06955" lon="9.13632">
        <ele>2034.7678222656</ele>
        <time>2015-06-24T11:07:47Z</time>
      </trkpt>
      <trkpt lat="42.06956" lon="9.13644">
        <ele>2034.287109375</ele>
        <time>2015-06-24T11:08:05Z</time>
      </trkpt>
      <trkpt lat="42.06959" lon="9.13663">
        <ele>2030.9226074219</ele>
        <time>2015-06-24T11:08:20Z</time>
      </trkpt>
      <trkpt lat="42.06964" lon="9.13677">
        <ele>2028.5192871094</ele>
        <time>2015-06-24T11:08:34Z</time>
      </trkpt>
      <trkpt lat="42.06965" lon="9.13685">
        <ele>2027.0771484375</ele>
        <time>2015-06-24T11:08:41Z</time>
      </trkpt>
      <trkpt lat="42.06973" lon="9.13697">
        <ele>2023.2319335938</ele>
        <time>2015-06-24T11:08:56Z</time>
      </trkpt>
      <trkpt lat="42.0698" lon="9.13708">
        <ele>2019.8671875</ele>
        <time>2015-06-24T11:09:11Z</time>
      </trkpt>
      <trkpt lat="42.06979" lon="9.1371">
        <ele>2020.3479003906</ele>
        <time>2015-06-24T11:09:37Z</time>
      </trkpt>
      <trkpt lat="42.06982" lon="9.13726">
        <ele>2017.9445800781</ele>
        <time>2015-06-24T11:09:54Z</time>
      </trkpt>
      <trkpt lat="42.06986" lon="9.13729">
        <ele>2016.5026855469</ele>
        <time>2015-06-24T11:10:14Z</time>
      </trkpt>
      <trkpt lat="42.06988" lon="9.13731">
        <ele>2015.5415039062</ele>
        <time>2015-06-24T11:10:25Z</time>
      </trkpt>
      <trkpt lat="42.06996" lon="9.13734">
        <ele>2012.6574707031</ele>
        <time>2015-06-24T11:10:36Z</time>
      </trkpt>
      <trkpt lat="42.07003" lon="9.13735">
        <ele>2011.2153320312</ele>
        <time>2015-06-24T11:10:50Z</time>
      </trkpt>
      <trkpt lat="42.0701" lon="9.13737">
        <ele>2010.7346191406</ele>
        <time>2015-06-24T11:11:02Z</time>
      </trkpt>
      <trkpt lat="42.07013" lon="9.13741">
        <ele>2007.3701171875</ele>
        <time>2015-06-24T11:11:12Z</time>
      </trkpt>
      <trkpt lat="42.07016" lon="9.13747">
        <ele>2006.4086914062</ele>
        <time>2015-06-24T11:11:27Z</time>
      </trkpt>
      <trkpt lat="42.07023" lon="9.13751">
        <ele>2003.5249023438</ele>
        <time>2015-06-24T11:11:53Z</time>
      </trkpt>
      <trkpt lat="42.07028" lon="9.13757">
        <ele>2000.1604003906</ele>
        <time>2015-06-24T11:12:06Z</time>
      </trkpt>
      <trkpt lat="42.0703" lon="9.13766">
        <ele>1999.1989746094</ele>
        <time>2015-06-24T11:12:20Z</time>
      </trkpt>
      <trkpt lat="42.07037" lon="9.13772">
        <ele>1997.2763671875</ele>
        <time>2015-06-24T11:12:34Z</time>
      </trkpt>
      <trkpt lat="42.07041" lon="9.13775">
        <ele>1994.3920898438</ele>
        <time>2015-06-24T11:12:52Z</time>
      </trkpt>
      <trkpt lat="42.0705" lon="9.1379">
        <ele>1991.9890136719</ele>
        <time>2015-06-24T11:13:10Z</time>
      </trkpt>
      <trkpt lat="42.07053" lon="9.13798">
        <ele>1989.1049804688</ele>
        <time>2015-06-24T11:13:24Z</time>
      </trkpt>
      <trkpt lat="42.0705" lon="9.1381">
        <ele>1988.1437988281</ele>
        <time>2015-06-24T11:13:39Z</time>
      </trkpt>
      <trkpt lat="42.0705" lon="9.13822">
        <ele>1985.7404785156</ele>
        <time>2015-06-24T11:13:54Z</time>
      </trkpt>
      <trkpt lat="42.07052" lon="9.13828">
        <ele>1983.8178710938</ele>
        <time>2015-06-24T11:14:10Z</time>
      </trkpt>
      <trkpt lat="42.07051" lon="9.13837">
        <ele>1979.9724121094</ele>
        <time>2015-06-24T11:14:24Z</time>
      </trkpt>
      <trkpt lat="42.07051" lon="9.13837">
        <ele>1980.4533691406</ele>
        <time>2015-06-24T11:14:25Z</time>
      </trkpt>
      <trkpt lat="42.07052" lon="9.1385">
        <ele>1979.0109863281</ele>
        <time>2015-06-24T11:14:41Z</time>
      </trkpt>
      <trkpt lat="42.0705" lon="9.1386">
        <ele>1976.1271972656</ele>
        <time>2015-06-24T11:14:55Z</time>
      </trkpt>
      <trkpt lat="42.0705" lon="9.13874">
        <ele>1973.2434082031</ele>
        <time>2015-06-24T11:15:11Z</time>
      </trkpt>
      <trkpt lat="42.07048" lon="9.13881">
        <ele>1973.2434082031</ele>
        <time>2015-06-24T11:15:24Z</time>
      </trkpt>
      <trkpt lat="42.07047" lon="9.1389">
        <ele>1970.8400878906</ele>
        <time>2015-06-24T11:15:37Z</time>
      </trkpt>
      <trkpt lat="42.0705" lon="9.13898">
        <ele>1967.9560546875</ele>
        <time>2015-06-24T11:15:51Z</time>
      </trkpt>
      <trkpt lat="42.07053" lon="9.13903">
        <ele>1966.0334472656</ele>
        <time>2015-06-24T11:16:00Z</time>
      </trkpt>
      <trkpt lat="42.07051" lon="9.13916">
        <ele>1964.5915527344</ele>
        <time>2015-06-24T11:16:14Z</time>
      </trkpt>
      <trkpt lat="42.07048" lon="9.1393">
        <ele>1962.6687011719</ele>
        <time>2015-06-24T11:16:30Z</time>
      </trkpt>
      <trkpt lat="42.07044" lon="9.13939">
        <ele>1960.2653808594</ele>
        <time>2015-06-24T11:16:42Z</time>
      </trkpt>
      <trkpt lat="42.07044" lon="9.13951">
        <ele>1958.3427734375</ele>
        <time>2015-06-24T11:16:57Z</time>
      </trkpt>
      <trkpt lat="42.07047" lon="9.13966">
        <ele>1956.9008789062</ele>
        <time>2015-06-24T11:17:23Z</time>
      </trkpt>
      <trkpt lat="42.07048" lon="9.13975">
        <ele>1954.9782714844</ele>
        <time>2015-06-24T11:17:36Z</time>
      </trkpt>
      <trkpt lat="42.07053" lon="9.13985">
        <ele>1952.0942382812</ele>
        <time>2015-06-24T11:17:52Z</time>
      </trkpt>
      <trkpt lat="42.07057" lon="9.13991">
        <ele>1950.65234375</ele>
        <time>2015-06-24T11:18:05Z</time>
      </trkpt>
      <trkpt lat="42.07058" lon="9.13994">
        <ele>1948.7297363281</ele>
        <time>2015-06-24T11:18:12Z</time>
      </trkpt>
      <trkpt lat="42.07058" lon="9.14004">
        <ele>1946.8068847656</ele>
        <time>2015-06-24T11:18:27Z</time>
      </trkpt>
      <trkpt lat="42.07059" lon="9.14013">
        <ele>1944.4035644531</ele>
        <time>2015-06-24T11:18:42Z</time>
      </trkpt>
      <trkpt lat="42.07059" lon="9.14021">
        <ele>1942.9616699219</ele>
        <time>2015-06-24T11:18:56Z</time>
      </trkpt>
      <trkpt lat="42.07056" lon="9.1403">
        <ele>1941.0390625</ele>
        <time>2015-06-24T11:19:12Z</time>
      </trkpt>
      <trkpt lat="42.07056" lon="9.14035">
        <ele>1939.5971679688</ele>
        <time>2015-06-24T11:19:20Z</time>
      </trkpt>
      <trkpt lat="42.07054" lon="9.14043">
        <ele>1937.1938476562</ele>
        <time>2015-06-24T11:19:33Z</time>
      </trkpt>
      <trkpt lat="42.07054" lon="9.14049">
        <ele>1936.7131347656</ele>
        <time>2015-06-24T11:19:40Z</time>
      </trkpt>
      <trkpt lat="42.07053" lon="9.1406">
        <ele>1935.2712402344</ele>
        <time>2015-06-24T11:19:53Z</time>
      </trkpt>
      <trkpt lat="42.07053" lon="9.14079">
        <ele>1931.42578125</ele>
        <time>2015-06-24T11:20:10Z</time>
      </trkpt>
      <trkpt lat="42.07052" lon="9.1408">
        <ele>1932.3874511719</ele>
        <time>2015-06-24T11:20:11Z</time>
      </trkpt>
      <trkpt lat="42.07046" lon="9.14095">
        <ele>1929.5031738281</ele>
        <time>2015-06-24T11:20:26Z</time>
      </trkpt>
      <trkpt lat="42.07043" lon="9.14106">
        <ele>1927.5805664062</ele>
        <time>2015-06-24T11:20:39Z</time>
      </trkpt>
      <trkpt lat="42.07037" lon="9.14115">
        <ele>1925.6579589844</ele>
        <time>2015-06-24T11:20:52Z</time>
      </trkpt>
      <trkpt lat="42.07041" lon="9.14126">
        <ele>1922.7741699219</ele>
        <time>2015-06-24T11:21:06Z</time>
      </trkpt>
      <trkpt lat="42.0705" lon="9.14135">
        <ele>1919.4096679688</ele>
        <time>2015-06-24T11:21:20Z</time>
      </trkpt>
      <trkpt lat="42.0705" lon="9.14135">
        <ele>1919.4096679688</ele>
        <time>2015-06-24T11:21:21Z</time>
      </trkpt>
      <trkpt lat="42.07058" lon="9.14136">
        <ele>1917.4868164062</ele>
        <time>2015-06-24T11:21:37Z</time>
      </trkpt>
      <trkpt lat="42.0706" lon="9.14134">
        <ele>1917.9675292969</ele>
        <time>2015-06-24T11:21:44Z</time>
      </trkpt>
      <trkpt lat="42.07069" lon="9.14134">
        <ele>1916.044921875</ele>
        <time>2015-06-24T11:21:59Z</time>
      </trkpt>
      <trkpt lat="42.07072" lon="9.14135">
        <ele>1915.0834960938</ele>
        <time>2015-06-24T11:22:03Z</time>
      </trkpt>
      <trkpt lat="42.07078" lon="9.14143">
        <ele>1913.6413574219</ele>
        <time>2015-06-24T11:22:15Z</time>
      </trkpt>
      <trkpt lat="42.07086" lon="9.14152">
        <ele>1911.7189941406</ele>
        <time>2015-06-24T11:22:30Z</time>
      </trkpt>
      <trkpt lat="42.07093" lon="9.14155">
        <ele>1910.2768554688</ele>
        <time>2015-06-24T11:22:37Z</time>
      </trkpt>
      <trkpt lat="42.07102" lon="9.1416">
        <ele>1907.3930664062</ele>
        <time>2015-06-24T11:22:52Z</time>
      </trkpt>
      <trkpt lat="42.07119" lon="9.14166">
        <ele>1907.3930664062</ele>
        <time>2015-06-24T11:23:09Z</time>
      </trkpt>
      <trkpt lat="42.07128" lon="9.14176">
        <ele>1906.431640625</ele>
        <time>2015-06-24T11:23:21Z</time>
      </trkpt>
      <trkpt lat="42.07138" lon="9.14181">
        <ele>1906.9123535156</ele>
        <time>2015-06-24T11:23:35Z</time>
      </trkpt>
      <trkpt lat="42.07145" lon="9.14189">
        <ele>1904.5090332031</ele>
        <time>2015-06-24T11:23:46Z</time>
      </trkpt>
      <trkpt lat="42.07152" lon="9.14191">
        <ele>1904.0285644531</ele>
        <time>2015-06-24T11:23:56Z</time>
      </trkpt>
      <trkpt lat="42.07163" lon="9.1419">
        <ele>1903.0671386719</ele>
        <time>2015-06-24T11:24:10Z</time>
      </trkpt>
      <trkpt lat="42.07171" lon="9.14192">
        <ele>1901.6252441406</ele>
        <time>2015-06-24T11:24:20Z</time>
      </trkpt>
      <trkpt lat="42.07174" lon="9.14198">
        <ele>1901.14453125</ele>
        <time>2015-06-24T11:24:30Z</time>
      </trkpt>
      <trkpt lat="42.07171" lon="9.14208">
        <ele>1900.1833496094</ele>
        <time>2015-06-24T11:24:37Z</time>
      </trkpt>
      <trkpt lat="42.07173" lon="9.14233">
        <ele>1900.1833496094</ele>
        <time>2015-06-24T11:24:53Z</time>
      </trkpt>
      <trkpt lat="42.07178" lon="9.14252">
        <ele>1898.2602539062</ele>
        <time>2015-06-24T11:25:08Z</time>
      </trkpt>
      <trkpt lat="42.0718" lon="9.14263">
        <ele>1895.8571777344</ele>
        <time>2015-06-24T11:25:21Z</time>
      </trkpt>
      <trkpt lat="42.07181" lon="9.14266">
        <ele>1894.8957519531</ele>
        <time>2015-06-24T11:25:24Z</time>
      </trkpt>
      <trkpt lat="42.07187" lon="9.14281">
        <ele>1891.53125</ele>
        <time>2015-06-24T11:25:38Z</time>
      </trkpt>
      <trkpt lat="42.07199" lon="9.14289">
        <ele>1890.5698242188</ele>
        <time>2015-06-24T11:25:51Z</time>
      </trkpt>
      <trkpt lat="42.07203" lon="9.14289">
        <ele>1890.0893554688</ele>
        <time>2015-06-24T11:25:56Z</time>
      </trkpt>
      <trkpt lat="42.07214" lon="9.14298">
        <ele>1890.0893554688</ele>
        <time>2015-06-24T11:26:10Z</time>
      </trkpt>
      <trkpt lat="42.07216" lon="9.14312">
        <ele>1888.6474609375</ele>
        <time>2015-06-24T11:26:26Z</time>
      </trkpt>
      <trkpt lat="42.07221" lon="9.14326">
        <ele>1887.2053222656</ele>
        <time>2015-06-24T11:26:39Z</time>
      </trkpt>
      <trkpt lat="42.07221" lon="9.14327">
        <ele>1886.724609375</ele>
        <time>2015-06-24T11:26:40Z</time>
      </trkpt>
      <trkpt lat="42.07224" lon="9.14338">
        <ele>1885.7634277344</ele>
        <time>2015-06-24T11:26:52Z</time>
      </trkpt>
      <trkpt lat="42.0723" lon="9.1435">
        <ele>1883.8405761719</ele>
        <time>2015-06-24T11:27:07Z</time>
      </trkpt>
      <trkpt lat="42.07234" lon="9.14355">
        <ele>1882.3986816406</ele>
        <time>2015-06-24T11:27:22Z</time>
      </trkpt>
      <trkpt lat="42.0724" lon="9.14367">
        <ele>1880.4760742188</ele>
        <time>2015-06-24T11:27:38Z</time>
      </trkpt>
      <trkpt lat="42.07242" lon="9.1437">
        <ele>1880.4760742188</ele>
        <time>2015-06-24T11:27:43Z</time>
      </trkpt>
      <trkpt lat="42.07251" lon="9.14375">
        <ele>1878.5534667969</ele>
        <time>2015-06-24T11:27:57Z</time>
      </trkpt>
      <trkpt lat="42.07258" lon="9.14382">
        <ele>1876.630859375</ele>
        <time>2015-06-24T11:28:10Z</time>
      </trkpt>
      <trkpt lat="42.07261" lon="9.14389">
        <ele>1873.7468261719</ele>
        <time>2015-06-24T11:28:22Z</time>
      </trkpt>
      <trkpt lat="42.07262" lon="9.14393">
        <ele>1871.82421875</ele>
        <time>2015-06-24T11:28:29Z</time>
      </trkpt>
      <trkpt lat="42.07271" lon="9.14403">
        <ele>1869.9016113281</ele>
        <time>2015-06-24T11:28:45Z</time>
      </trkpt>
      <trkpt lat="42.07272" lon="9.14409">
        <ele>1867.498046875</ele>
        <time>2015-06-24T11:28:58Z</time>
      </trkpt>
      <trkpt lat="42.0728" lon="9.14418">
        <ele>1865.5756835938</ele>
        <time>2015-06-24T11:29:13Z</time>
      </trkpt>
      <trkpt lat="42.07284" lon="9.14423">
        <ele>1863.6528320312</ele>
        <time>2015-06-24T11:29:33Z</time>
      </trkpt>
      <trkpt lat="42.07292" lon="9.14429">
        <ele>1861.73046875</ele>
        <time>2015-06-24T11:29:47Z</time>
      </trkpt>
      <trkpt lat="42.07296" lon="9.1444">
        <ele>1857.4045410156</ele>
        <time>2015-06-24T11:30:03Z</time>
      </trkpt>
      <trkpt lat="42.07301" lon="9.14444">
        <ele>1856.923828125</ele>
        <time>2015-06-24T11:30:14Z</time>
      </trkpt>
      <trkpt lat="42.07308" lon="9.14452">
        <ele>1855.4819335938</ele>
        <time>2015-06-24T11:30:28Z</time>
      </trkpt>
      <trkpt lat="42.07311" lon="9.14454">
        <ele>1852.1171875</ele>
        <time>2015-06-24T11:30:40Z</time>
      </trkpt>
      <trkpt lat="42.07313" lon="9.14455">
        <ele>1851.6364746094</ele>
        <time>2015-06-24T11:30:44Z</time>
      </trkpt>
      <trkpt lat="42.07318" lon="9.14465">
        <ele>1850.1945800781</ele>
        <time>2015-06-24T11:31:01Z</time>
      </trkpt>
      <trkpt lat="42.07322" lon="9.14468">
        <ele>1848.7524414062</ele>
        <time>2015-06-24T11:31:17Z</time>
      </trkpt>
      <trkpt lat="42.07323" lon="9.14478">
        <ele>1845.8686523438</ele>
        <time>2015-06-24T11:31:28Z</time>
      </trkpt>
      <trkpt lat="42.07324" lon="9.14479">
        <ele>1845.8686523438</ele>
        <time>2015-06-24T11:31:29Z</time>
      </trkpt>
      <trkpt lat="42.07326" lon="9.14493">
        <ele>1842.5041503906</ele>
        <time>2015-06-24T11:31:45Z</time>
      </trkpt>
      <trkpt lat="42.0733" lon="9.14496">
        <ele>1841.5427246094</ele>
        <time>2015-06-24T11:31:55Z</time>
      </trkpt>
      <trkpt lat="42.07331" lon="9.14504">
        <ele>1838.6589355469</ele>
        <time>2015-06-24T11:32:08Z</time>
      </trkpt>
      <trkpt lat="42.07331" lon="9.1451">
        <ele>1836.7360839844</ele>
        <time>2015-06-24T11:32:16Z</time>
      </trkpt>
      <trkpt lat="42.07331" lon="9.1451">
        <ele>1836.7360839844</ele>
        <time>2015-06-24T11:32:27Z</time>
      </trkpt>
      <trkpt lat="42.07322" lon="9.14513">
        <ele>1835.7746582031</ele>
        <time>2015-06-24T11:32:41Z</time>
      </trkpt>
      <trkpt lat="42.07322" lon="9.1452">
        <ele>1833.3713378906</ele>
        <time>2015-06-24T11:32:55Z</time>
      </trkpt>
      <trkpt lat="42.07322" lon="9.14524">
        <ele>1830.0068359375</ele>
        <time>2015-06-24T11:33:05Z</time>
      </trkpt>
      <trkpt lat="42.07321" lon="9.1453">
        <ele>1829.5261230469</ele>
        <time>2015-06-24T11:33:18Z</time>
      </trkpt>
      <trkpt lat="42.07322" lon="9.14533">
        <ele>1828.0842285156</ele>
        <time>2015-06-24T11:33:34Z</time>
      </trkpt>
      <trkpt lat="42.07328" lon="9.14538">
        <ele>1825.6809082031</ele>
        <time>2015-06-24T11:33:48Z</time>
      </trkpt>
      <trkpt lat="42.07335" lon="9.14543">
        <ele>1823.7583007812</ele>
        <time>2015-06-24T11:34:03Z</time>
      </trkpt>
      <trkpt lat="42.07335" lon="9.14548">
        <ele>1820.3937988281</ele>
        <time>2015-06-24T11:34:11Z</time>
      </trkpt>
      <trkpt lat="42.07335" lon="9.14548">
        <ele>1820.3937988281</ele>
        <time>2015-06-24T11:34:12Z</time>
      </trkpt>
      <trkpt lat="42.07333" lon="9.14555">
        <ele>1817.990234375</ele>
        <time>2015-06-24T11:34:24Z</time>
      </trkpt>
      <trkpt lat="42.07326" lon="9.1456">
        <ele>1816.5483398438</ele>
        <time>2015-06-24T11:34:37Z</time>
      </trkpt>
      <trkpt lat="42.07324" lon="9.14561">
        <ele>1814.6257324219</ele>
        <time>2015-06-24T11:34:39Z</time>
      </trkpt>
      <trkpt lat="42.07321" lon="9.14564">
        <ele>1812.703125</ele>
        <time>2015-06-24T11:34:45Z</time>
      </trkpt>
      <trkpt lat="42.07313" lon="9.14566">
        <ele>1812.2224121094</ele>
        <time>2015-06-24T11:34:57Z</time>
      </trkpt>
      <trkpt lat="42.07317" lon="9.14572">
        <ele>1808.8579101562</ele>
        <time>2015-06-24T11:35:09Z</time>
      </trkpt>
      <trkpt lat="42.07312" lon="9.14577">
        <ele>1806.9353027344</ele>
        <time>2015-06-24T11:35:23Z</time>
      </trkpt>
      <trkpt lat="42.07306" lon="9.1458">
        <ele>1803.5705566406</ele>
        <time>2015-06-24T11:35:37Z</time>
      </trkpt>
      <trkpt lat="42.07301" lon="9.14582">
        <ele>1802.1284179688</ele>
        <time>2015-06-24T11:35:46Z</time>
      </trkpt>
      <trkpt lat="42.073" lon="9.14587">
        <ele>1799.2446289062</ele>
        <time>2015-06-24T11:36:01Z</time>
      </trkpt>
      <trkpt lat="42.07298" lon="9.1459">
        <ele>1797.802734375</ele>
        <time>2015-06-24T11:36:15Z</time>
      </trkpt>
      <trkpt lat="42.07297" lon="9.14597">
        <ele>1794.4379882812</ele>
        <time>2015-06-24T11:36:28Z</time>
      </trkpt>
      <trkpt lat="42.07297" lon="9.14604">
        <ele>1793.9575195312</ele>
        <time>2015-06-24T11:36:41Z</time>
      </trkpt>
      <trkpt lat="42.07297" lon="9.14612">
        <ele>1791.5541992188</ele>
        <time>2015-06-24T11:36:55Z</time>
      </trkpt>
      <trkpt lat="42.07298" lon="9.14614">
        <ele>1789.6315917969</ele>
        <time>2015-06-24T11:37:00Z</time>
      </trkpt>
      <trkpt lat="42.07304" lon="9.14617">
        <ele>1786.2668457031</ele>
        <time>2015-06-24T11:37:09Z</time>
      </trkpt>
      <trkpt lat="42.07304" lon="9.14628">
        <ele>1783.3828125</ele>
        <time>2015-06-24T11:37:24Z</time>
      </trkpt>
      <trkpt lat="42.07311" lon="9.14632">
        <ele>1782.9020996094</ele>
        <time>2015-06-24T11:37:41Z</time>
      </trkpt>
      <trkpt lat="42.07315" lon="9.14641">
        <ele>1779.5375976562</ele>
        <time>2015-06-24T11:37:53Z</time>
      </trkpt>
      <trkpt lat="42.07319" lon="9.14652">
        <ele>1777.6149902344</ele>
        <time>2015-06-24T11:38:08Z</time>
      </trkpt>
      <trkpt lat="42.07328" lon="9.14662">
        <ele>1776.1730957031</ele>
        <time>2015-06-24T11:38:23Z</time>
      </trkpt>
      <trkpt lat="42.07333" lon="9.1467">
        <ele>1773.2893066406</ele>
        <time>2015-06-24T11:38:34Z</time>
      </trkpt>
      <trkpt lat="42.07336" lon="9.14675">
        <ele>1771.8469238281</ele>
        <time>2015-06-24T11:38:42Z</time>
      </trkpt>
      <trkpt lat="42.07342" lon="9.14685">
        <ele>1770.4050292969</ele>
        <time>2015-06-24T11:38:56Z</time>
      </trkpt>
      <trkpt lat="42.07348" lon="9.14691">
        <ele>1767.5209960938</ele>
        <time>2015-06-24T11:39:10Z</time>
      </trkpt>
      <trkpt lat="42.07349" lon="9.14702">
        <ele>1764.6372070312</ele>
        <time>2015-06-24T11:39:25Z</time>
      </trkpt>
      <trkpt lat="42.07353" lon="9.14704">
        <ele>1763.1953125</ele>
        <time>2015-06-24T11:39:30Z</time>
      </trkpt>
      <trkpt lat="42.07359" lon="9.14711">
        <ele>1761.2727050781</ele>
        <time>2015-06-24T11:39:43Z</time>
      </trkpt>
      <trkpt lat="42.07366" lon="9.14722">
        <ele>1758.8693847656</ele>
        <time>2015-06-24T11:39:58Z</time>
      </trkpt>
      <trkpt lat="42.07367" lon="9.14723">
        <ele>1758.388671875</ele>
        <time>2015-06-24T11:40:00Z</time>
      </trkpt>
      <trkpt lat="42.07377" lon="9.14735">
        <ele>1756.9467773438</ele>
        <time>2015-06-24T11:40:16Z</time>
      </trkpt>
      <trkpt lat="42.07385" lon="9.14744">
        <ele>1753.58203125</ele>
        <time>2015-06-24T11:40:32Z</time>
      </trkpt>
      <trkpt lat="42.07385" lon="9.14749">
        <ele>1753.58203125</ele>
        <time>2015-06-24T11:40:45Z</time>
      </trkpt>
      <trkpt lat="42.07388" lon="9.14757">
        <ele>1750.6979980469</ele>
        <time>2015-06-24T11:40:55Z</time>
      </trkpt>
      <trkpt lat="42.07396" lon="9.14764">
        <ele>1748.2946777344</ele>
        <time>2015-06-24T11:41:11Z</time>
      </trkpt>
      <trkpt lat="42.07403" lon="9.14769">
        <ele>1746.3723144531</ele>
        <time>2015-06-24T11:41:25Z</time>
      </trkpt>
      <trkpt lat="42.07405" lon="9.14781">
        <ele>1744.9301757812</ele>
        <time>2015-06-24T11:41:39Z</time>
      </trkpt>
      <trkpt lat="42.07403" lon="9.14793">
        <ele>1743.0075683594</ele>
        <time>2015-06-24T11:41:53Z</time>
      </trkpt>
      <trkpt lat="42.07408" lon="9.14808">
        <ele>1741.0849609375</ele>
        <time>2015-06-24T11:42:09Z</time>
      </trkpt>
      <trkpt lat="42.07411" lon="9.14822">
        <ele>1739.6428222656</ele>
        <time>2015-06-24T11:42:22Z</time>
      </trkpt>
      <trkpt lat="42.07413" lon="9.14841">
        <ele>1737.7202148438</ele>
        <time>2015-06-24T11:42:38Z</time>
      </trkpt>
      <trkpt lat="42.07417" lon="9.14854">
        <ele>1735.7976074219</ele>
        <time>2015-06-24T11:42:51Z</time>
      </trkpt>
      <trkpt lat="42.07416" lon="9.14868">
        <ele>1733.875</ele>
        <time>2015-06-24T11:43:07Z</time>
      </trkpt>
      <trkpt lat="42.07416" lon="9.1487">
        <ele>1731.9523925781</ele>
        <time>2015-06-24T11:43:10Z</time>
      </trkpt>
      <trkpt lat="42.0742" lon="9.14883">
        <ele>1730.9912109375</ele>
        <time>2015-06-24T11:43:25Z</time>
      </trkpt>
      <trkpt lat="42.07427" lon="9.14886">
        <ele>1729.068359375</ele>
        <time>2015-06-24T11:43:37Z</time>
      </trkpt>
      <trkpt lat="42.07434" lon="9.14879">
        <ele>1728.587890625</ele>
        <time>2015-06-24T11:43:48Z</time>
      </trkpt>
      <trkpt lat="42.07438" lon="9.1487">
        <ele>1727.6264648438</ele>
        <time>2015-06-24T11:44:05Z</time>
      </trkpt>
      <trkpt lat="42.07438" lon="9.14865">
        <ele>1727.1459960938</ele>
        <time>2015-06-24T11:44:11Z</time>
      </trkpt>
      <trkpt lat="42.07443" lon="9.14846">
        <ele>1726.1845703125</ele>
        <time>2015-06-24T11:44:27Z</time>
      </trkpt>
      <trkpt lat="42.07443" lon="9.14832">
        <ele>1724.2619628906</ele>
        <time>2015-06-24T11:44:37Z</time>
      </trkpt>
      <trkpt lat="42.0745" lon="9.14803">
        <ele>1720.8972167969</ele>
        <time>2015-06-24T11:44:57Z</time>
      </trkpt>
      <trkpt lat="42.07455" lon="9.14777">
        <ele>1719.4553222656</ele>
        <time>2015-06-24T11:45:16Z</time>
      </trkpt>
      <trkpt lat="42.07463" lon="9.14756">
        <ele>1717.5324707031</ele>
        <time>2015-06-24T11:45:35Z</time>
      </trkpt>
      <trkpt lat="42.07468" lon="9.14736">
        <ele>1715.1293945312</ele>
        <time>2015-06-24T11:45:52Z</time>
      </trkpt>
      <trkpt lat="42.07471" lon="9.14728">
        <ele>1713.6872558594</ele>
        <time>2015-06-24T11:45:59Z</time>
      </trkpt>
      <trkpt lat="42.07483" lon="9.14708">
        <ele>1711.2841796875</ele>
        <time>2015-06-24T11:46:17Z</time>
      </trkpt>
      <trkpt lat="42.07491" lon="9.14696">
        <ele>1708.880859375</ele>
        <time>2015-06-24T11:46:32Z</time>
      </trkpt>
      <trkpt lat="42.07491" lon="9.14695">
        <ele>1708.880859375</ele>
        <time>2015-06-24T11:46:33Z</time>
      </trkpt>
      <trkpt lat="42.07501" lon="9.14682">
        <ele>1707.9194335938</ele>
        <time>2015-06-24T11:46:48Z</time>
      </trkpt>
      <trkpt lat="42.07507" lon="9.14674">
        <ele>1704.07421875</ele>
        <time>2015-06-24T11:47:00Z</time>
      </trkpt>
      <trkpt lat="42.07507" lon="9.14673">
        <ele>1704.5546875</ele>
        <time>2015-06-24T11:47:01Z</time>
      </trkpt>
      <trkpt lat="42.07512" lon="9.14667">
        <ele>1704.07421875</ele>
        <time>2015-06-24T11:47:12Z</time>
      </trkpt>
      <trkpt lat="42.07517" lon="9.14664">
        <ele>1704.07421875</ele>
        <time>2015-06-24T11:47:18Z</time>
      </trkpt>
      <trkpt lat="42.07531" lon="9.14645">
        <ele>1701.1901855469</ele>
        <time>2015-06-24T11:47:41Z</time>
      </trkpt>
      <trkpt lat="42.07542" lon="9.14635">
        <ele>1699.267578125</ele>
        <time>2015-06-24T11:47:57Z</time>
      </trkpt>
      <trkpt lat="42.07544" lon="9.14633">
        <ele>1698.3061523438</ele>
        <time>2015-06-24T11:48:10Z</time>
      </trkpt>
      <trkpt lat="42.07553" lon="9.14624">
        <ele>1695.9030761719</ele>
        <time>2015-06-24T11:48:23Z</time>
      </trkpt>
      <trkpt lat="42.07558" lon="9.14623">
        <ele>1695.4223632812</ele>
        <time>2015-06-24T11:48:27Z</time>
      </trkpt>
      <trkpt lat="42.07571" lon="9.14619">
        <ele>1694.4609375</ele>
        <time>2015-06-24T11:48:40Z</time>
      </trkpt>
      <trkpt lat="42.07585" lon="9.14614">
        <ele>1691.5769042969</ele>
        <time>2015-06-24T11:48:58Z</time>
      </trkpt>
      <trkpt lat="42.07599" lon="9.14612">
        <ele>1690.1350097656</ele>
        <time>2015-06-24T11:49:13Z</time>
      </trkpt>
      <trkpt lat="42.07609" lon="9.14619">
        <ele>1688.2124023438</ele>
        <time>2015-06-24T11:49:30Z</time>
      </trkpt>
      <trkpt lat="42.07617" lon="9.14627">
        <ele>1684.8479003906</ele>
        <time>2015-06-24T11:49:44Z</time>
      </trkpt>
      <trkpt lat="42.07638" lon="9.14645">
        <ele>1683.8864746094</ele>
        <time>2015-06-24T11:50:05Z</time>
      </trkpt>
      <trkpt lat="42.07662" lon="9.14658">
        <ele>1681.0026855469</ele>
        <time>2015-06-24T11:50:27Z</time>
      </trkpt>
      <trkpt lat="42.07663" lon="9.14658">
        <ele>1680.5219726562</ele>
        <time>2015-06-24T11:50:28Z</time>
      </trkpt>
      <trkpt lat="42.0768" lon="9.14663">
        <ele>1678.5993652344</ele>
        <time>2015-06-24T11:50:46Z</time>
      </trkpt>
      <trkpt lat="42.07695" lon="9.14674">
        <ele>1678.1186523438</ele>
        <time>2015-06-24T11:51:04Z</time>
      </trkpt>
      <trkpt lat="42.07697" lon="9.14675">
        <ele>1678.1186523438</ele>
        <time>2015-06-24T11:51:16Z</time>
      </trkpt>
      <trkpt lat="42.07714" lon="9.1469">
        <ele>1677.6379394531</ele>
        <time>2015-06-24T11:51:35Z</time>
      </trkpt>
      <trkpt lat="42.07721" lon="9.14702">
        <ele>1678.1186523438</ele>
        <time>2015-06-24T11:51:48Z</time>
      </trkpt>
      <trkpt lat="42.07724" lon="9.14705">
        <ele>1678.1186523438</ele>
        <time>2015-06-24T11:51:52Z</time>
      </trkpt>
      <trkpt lat="42.07733" lon="9.14733">
        <ele>1678.1186523438</ele>
        <time>2015-06-24T11:52:10Z</time>
      </trkpt>
      <trkpt lat="42.07735" lon="9.1474">
        <ele>1677.1574707031</ele>
        <time>2015-06-24T11:52:15Z</time>
      </trkpt>
      <trkpt lat="42.07746" lon="9.1475">
        <ele>1677.6379394531</ele>
        <time>2015-06-24T11:52:28Z</time>
      </trkpt>
      <trkpt lat="42.07747" lon="9.14755">
        <ele>1677.1574707031</ele>
        <time>2015-06-24T11:52:31Z</time>
      </trkpt>
      <trkpt lat="42.07744" lon="9.14765">
        <ele>1677.1574707031</ele>
        <time>2015-06-24T11:52:39Z</time>
      </trkpt>
      <trkpt lat="42.07743" lon="9.14775">
        <ele>1676.1960449219</ele>
        <time>2015-06-24T11:52:51Z</time>
      </trkpt>
      <trkpt lat="42.07743" lon="9.14775">
        <ele>1676.6767578125</ele>
        <time>2015-06-24T11:53:18Z</time>
      </trkpt>
      <trkpt lat="42.07743" lon="9.14775">
        <ele>1676.1960449219</ele>
        <time>2015-06-24T11:53:19Z</time>
      </trkpt>
    </trkseg>
  </trk>
</gpx>